<?xml version="1.0" encoding="UTF-8" standalone="no" ?>
<gpx xmlns="http://www.topografix.com/GPX/1/1" xmlns:xsi="http://www.w3.org/2001/XMLSchema-instance" xsi:schemaLocation="http://www.topografix.com/GPX/1/1 http://www.topografix.com/GPX/1/1/gpx.xsd" version="1.1" creator="VisuGPX - https://www.visugpx.com">
  <metadata>
    <name>Le tour du puy de dome</name>
    <desc><![CDATA[Le tour du puy de Dôme 07 juillet 2018]]></desc>
  </metadata>
  <trk>
    <name><![CDATA[Le tour du Puy de Dome-9 juil. 2018]]></name>
    <trkseg>
      <trkpt lat="45.76404" lon="2.95623">
        <ele>1077.7768307964</ele>
        <time>2018-07-09T07:09:39Z</time>
      </trkpt>
      <trkpt lat="45.76415" lon="2.95589">
        <ele>1092.671281893</ele>
        <time>2018-07-09T07:09:48Z</time>
      </trkpt>
      <trkpt lat="45.7644" lon="2.9554">
        <ele>1099.9310681537</ele>
        <time>2018-07-09T07:09:58Z</time>
      </trkpt>
      <trkpt lat="45.76439" lon="2.95531">
        <ele>1100.8092527984</ele>
        <time>2018-07-09T07:10:08Z</time>
      </trkpt>
      <trkpt lat="45.76439" lon="2.95529">
        <ele>1096.6439581454</ele>
        <time>2018-07-09T07:10:18Z</time>
      </trkpt>
      <trkpt lat="45.7644" lon="2.95527">
        <ele>1092.9624035755</ele>
        <time>2018-07-09T07:10:27Z</time>
      </trkpt>
      <trkpt lat="45.7644" lon="2.95528">
        <ele>1092.9100739703</ele>
        <time>2018-07-09T07:10:37Z</time>
      </trkpt>
      <trkpt lat="45.76446" lon="2.95532">
        <ele>1093.1748395127</ele>
        <time>2018-07-09T07:10:46Z</time>
      </trkpt>
      <trkpt lat="45.76452" lon="2.95536">
        <ele>1092.4649644067</ele>
        <time>2018-07-09T07:10:55Z</time>
      </trkpt>
      <trkpt lat="45.76454" lon="2.95535">
        <ele>1091.0760002918</ele>
        <time>2018-07-09T07:11:04Z</time>
      </trkpt>
      <trkpt lat="45.76464" lon="2.95525">
        <ele>1089.7160319426</ele>
        <time>2018-07-09T07:11:13Z</time>
      </trkpt>
      <trkpt lat="45.76473" lon="2.95529">
        <ele>1088.1260371869</ele>
        <time>2018-07-09T07:11:22Z</time>
      </trkpt>
      <trkpt lat="45.76482" lon="2.95535">
        <ele>1086.6058890072</ele>
        <time>2018-07-09T07:11:32Z</time>
      </trkpt>
      <trkpt lat="45.76478" lon="2.95531">
        <ele>1084.5792835065</ele>
        <time>2018-07-09T07:11:41Z</time>
      </trkpt>
      <trkpt lat="45.76477" lon="2.95524">
        <ele>1082.5185402887</ele>
        <time>2018-07-09T07:11:51Z</time>
      </trkpt>
      <trkpt lat="45.76481" lon="2.95517">
        <ele>1081.1915903263</ele>
        <time>2018-07-09T07:12:01Z</time>
      </trkpt>
      <trkpt lat="45.76494" lon="2.95513">
        <ele>1078.2762122899</ele>
        <time>2018-07-09T07:12:10Z</time>
      </trkpt>
      <trkpt lat="45.76509" lon="2.95505">
        <ele>1075.3744338578</ele>
        <time>2018-07-09T07:12:19Z</time>
      </trkpt>
      <trkpt lat="45.76523" lon="2.95503">
        <ele>1072.7065256063</ele>
        <time>2018-07-09T07:12:29Z</time>
      </trkpt>
      <trkpt lat="45.76542" lon="2.95499">
        <ele>1070.435437654</ele>
        <time>2018-07-09T07:12:38Z</time>
      </trkpt>
      <trkpt lat="45.76554" lon="2.95493">
        <ele>1069.0334409249</ele>
        <time>2018-07-09T07:12:48Z</time>
      </trkpt>
      <trkpt lat="45.76561" lon="2.95493">
        <ele>1068.1451726875</ele>
        <time>2018-07-09T07:12:58Z</time>
      </trkpt>
      <trkpt lat="45.76563" lon="2.95492">
        <ele>1067.664232002</ele>
        <time>2018-07-09T07:13:07Z</time>
      </trkpt>
      <trkpt lat="45.76573" lon="2.95485">
        <ele>1067.2841581698</ele>
        <time>2018-07-09T07:13:17Z</time>
      </trkpt>
      <trkpt lat="45.76583" lon="2.95479">
        <ele>1066.9865571685</ele>
        <time>2018-07-09T07:13:25Z</time>
      </trkpt>
      <trkpt lat="45.76592" lon="2.95473">
        <ele>1066.8934310163</ele>
        <time>2018-07-09T07:13:35Z</time>
      </trkpt>
      <trkpt lat="45.76604" lon="2.95471">
        <ele>1067.0585160508</ele>
        <time>2018-07-09T07:13:44Z</time>
      </trkpt>
      <trkpt lat="45.76614" lon="2.95466">
        <ele>1067.7948698896</ele>
        <time>2018-07-09T07:13:54Z</time>
      </trkpt>
      <trkpt lat="45.76616" lon="2.95463">
        <ele>1068.6949377161</ele>
        <time>2018-07-09T07:14:03Z</time>
      </trkpt>
      <trkpt lat="45.76618" lon="2.9546">
        <ele>1069.4235542361</ele>
        <time>2018-07-09T07:14:13Z</time>
      </trkpt>
      <trkpt lat="45.76624" lon="2.95448">
        <ele>1069.9704692501</ele>
        <time>2018-07-09T07:14:22Z</time>
      </trkpt>
      <trkpt lat="45.76634" lon="2.9544">
        <ele>1070.4420188924</ele>
        <time>2018-07-09T07:14:31Z</time>
      </trkpt>
      <trkpt lat="45.76639" lon="2.95431">
        <ele>1070.7794288963</ele>
        <time>2018-07-09T07:14:41Z</time>
      </trkpt>
      <trkpt lat="45.76652" lon="2.95427">
        <ele>1071.0294217996</ele>
        <time>2018-07-09T07:14:50Z</time>
      </trkpt>
      <trkpt lat="45.76664" lon="2.95423">
        <ele>1071.144769844</ele>
        <time>2018-07-09T07:15:00Z</time>
      </trkpt>
      <trkpt lat="45.7667" lon="2.9542">
        <ele>1071.3276354641</ele>
        <time>2018-07-09T07:15:10Z</time>
      </trkpt>
      <trkpt lat="45.76678" lon="2.95418">
        <ele>1071.4896015516</ele>
        <time>2018-07-09T07:15:19Z</time>
      </trkpt>
      <trkpt lat="45.76689" lon="2.95425">
        <ele>1071.5457583029</ele>
        <time>2018-07-09T07:15:28Z</time>
      </trkpt>
      <trkpt lat="45.76696" lon="2.95421">
        <ele>1071.5467700075</ele>
        <time>2018-07-09T07:15:38Z</time>
      </trkpt>
      <trkpt lat="45.76706" lon="2.95413">
        <ele>1071.5339208573</ele>
        <time>2018-07-09T07:15:47Z</time>
      </trkpt>
      <trkpt lat="45.76713" lon="2.95412">
        <ele>1071.5423914269</ele>
        <time>2018-07-09T07:15:56Z</time>
      </trkpt>
      <trkpt lat="45.76726" lon="2.95416">
        <ele>1071.5470856234</ele>
        <time>2018-07-09T07:16:05Z</time>
      </trkpt>
      <trkpt lat="45.76734" lon="2.95415">
        <ele>1071.4792392982</ele>
        <time>2018-07-09T07:16:14Z</time>
      </trkpt>
      <trkpt lat="45.76739" lon="2.95415">
        <ele>1071.3395650754</ele>
        <time>2018-07-09T07:16:23Z</time>
      </trkpt>
      <trkpt lat="45.76747" lon="2.95417">
        <ele>1071.1708883394</ele>
        <time>2018-07-09T07:16:33Z</time>
      </trkpt>
      <trkpt lat="45.76758" lon="2.95419">
        <ele>1071.0269462357</ele>
        <time>2018-07-09T07:16:43Z</time>
      </trkpt>
      <trkpt lat="45.76762" lon="2.95417">
        <ele>1070.9416451048</ele>
        <time>2018-07-09T07:16:51Z</time>
      </trkpt>
      <trkpt lat="45.76766" lon="2.95418">
        <ele>1070.8689851156</ele>
        <time>2018-07-09T07:17:00Z</time>
      </trkpt>
      <trkpt lat="45.7678" lon="2.95408">
        <ele>1070.7695316495</ele>
        <time>2018-07-09T07:17:09Z</time>
      </trkpt>
      <trkpt lat="45.76798" lon="2.95406">
        <ele>1070.8725296431</ele>
        <time>2018-07-09T07:17:19Z</time>
      </trkpt>
      <trkpt lat="45.76807" lon="2.95402">
        <ele>1070.9429158711</ele>
        <time>2018-07-09T07:17:28Z</time>
      </trkpt>
      <trkpt lat="45.76822" lon="2.95393">
        <ele>1071.096082956</ele>
        <time>2018-07-09T07:17:37Z</time>
      </trkpt>
      <trkpt lat="45.76852" lon="2.95394">
        <ele>1071.6953708241</ele>
        <time>2018-07-09T07:17:47Z</time>
      </trkpt>
      <trkpt lat="45.76859" lon="2.95391">
        <ele>1072.3058134915</ele>
        <time>2018-07-09T07:17:56Z</time>
      </trkpt>
      <trkpt lat="45.76867" lon="2.9539">
        <ele>1073.0560606379</ele>
        <time>2018-07-09T07:18:06Z</time>
      </trkpt>
      <trkpt lat="45.76869" lon="2.95386">
        <ele>1073.5884447512</ele>
        <time>2018-07-09T07:18:15Z</time>
      </trkpt>
      <trkpt lat="45.76882" lon="2.95375">
        <ele>1074.1974361391</ele>
        <time>2018-07-09T07:18:25Z</time>
      </trkpt>
      <trkpt lat="45.7689" lon="2.95366">
        <ele>1074.6084573517</ele>
        <time>2018-07-09T07:18:35Z</time>
      </trkpt>
      <trkpt lat="45.7691" lon="2.95368">
        <ele>1075.1389542934</ele>
        <time>2018-07-09T07:18:44Z</time>
      </trkpt>
      <trkpt lat="45.76924" lon="2.95363">
        <ele>1075.7879102081</ele>
        <time>2018-07-09T07:18:52Z</time>
      </trkpt>
      <trkpt lat="45.76935" lon="2.95352">
        <ele>1076.4389579374</ele>
        <time>2018-07-09T07:19:01Z</time>
      </trkpt>
      <trkpt lat="45.76941" lon="2.95342">
        <ele>1076.909611109</ele>
        <time>2018-07-09T07:19:11Z</time>
      </trkpt>
      <trkpt lat="45.76945" lon="2.95338">
        <ele>1077.2370742754</ele>
        <time>2018-07-09T07:19:20Z</time>
      </trkpt>
      <trkpt lat="45.7696" lon="2.95334">
        <ele>1077.878683887</ele>
        <time>2018-07-09T07:19:29Z</time>
      </trkpt>
      <trkpt lat="45.76967" lon="2.9533">
        <ele>1078.3874178838</ele>
        <time>2018-07-09T07:19:39Z</time>
      </trkpt>
      <trkpt lat="45.76968" lon="2.95329">
        <ele>1080.2134383428</ele>
        <time>2018-07-09T07:19:48Z</time>
      </trkpt>
      <trkpt lat="45.76969" lon="2.9533">
        <ele>1080.2356869184</ele>
        <time>2018-07-09T07:19:50Z</time>
      </trkpt>
      <trkpt lat="45.76953" lon="2.95318">
        <ele>1081.2883913412</ele>
        <time>2018-07-09T07:20:04Z</time>
      </trkpt>
      <trkpt lat="45.76966" lon="2.95322">
        <ele>1081.3484604467</ele>
        <time>2018-07-09T07:20:13Z</time>
      </trkpt>
      <trkpt lat="45.76971" lon="2.95314">
        <ele>1081.6490257193</ele>
        <time>2018-07-09T07:20:23Z</time>
      </trkpt>
      <trkpt lat="45.76975" lon="2.95314">
        <ele>1082.1763780491</ele>
        <time>2018-07-09T07:20:32Z</time>
      </trkpt>
      <trkpt lat="45.76981" lon="2.95306">
        <ele>1083.1526620943</ele>
        <time>2018-07-09T07:20:41Z</time>
      </trkpt>
      <trkpt lat="45.76989" lon="2.95315">
        <ele>1084.2467286666</ele>
        <time>2018-07-09T07:20:50Z</time>
      </trkpt>
      <trkpt lat="45.76994" lon="2.95315">
        <ele>1085.0059569043</ele>
        <time>2018-07-09T07:21:00Z</time>
      </trkpt>
      <trkpt lat="45.76999" lon="2.95316">
        <ele>1085.7086699182</ele>
        <time>2018-07-09T07:21:10Z</time>
      </trkpt>
      <trkpt lat="45.77022" lon="2.95315">
        <ele>1086.4133994453</ele>
        <time>2018-07-09T07:21:20Z</time>
      </trkpt>
      <trkpt lat="45.77032" lon="2.95303">
        <ele>1087.2345267173</ele>
        <time>2018-07-09T07:21:30Z</time>
      </trkpt>
      <trkpt lat="45.77039" lon="2.95294">
        <ele>1088.0363504324</ele>
        <time>2018-07-09T07:21:40Z</time>
      </trkpt>
      <trkpt lat="45.77042" lon="2.95291">
        <ele>1088.8095465577</ele>
        <time>2018-07-09T07:21:49Z</time>
      </trkpt>
      <trkpt lat="45.77065" lon="2.95288">
        <ele>1089.6989000665</ele>
        <time>2018-07-09T07:21:59Z</time>
      </trkpt>
      <trkpt lat="45.77073" lon="2.95284">
        <ele>1090.5599143498</ele>
        <time>2018-07-09T07:22:09Z</time>
      </trkpt>
      <trkpt lat="45.77081" lon="2.95277">
        <ele>1091.2843611339</ele>
        <time>2018-07-09T07:22:19Z</time>
      </trkpt>
      <trkpt lat="45.7709" lon="2.95275">
        <ele>1091.8433146623</ele>
        <time>2018-07-09T07:22:28Z</time>
      </trkpt>
      <trkpt lat="45.771" lon="2.95269">
        <ele>1092.2335703164</ele>
        <time>2018-07-09T07:22:37Z</time>
      </trkpt>
      <trkpt lat="45.77107" lon="2.95261">
        <ele>1092.6205944879</ele>
        <time>2018-07-09T07:22:46Z</time>
      </trkpt>
      <trkpt lat="45.77117" lon="2.9526">
        <ele>1092.9388086984</ele>
        <time>2018-07-09T07:22:55Z</time>
      </trkpt>
      <trkpt lat="45.77127" lon="2.95254">
        <ele>1093.2394833293</ele>
        <time>2018-07-09T07:23:04Z</time>
      </trkpt>
      <trkpt lat="45.7713" lon="2.95247">
        <ele>1093.482738135</ele>
        <time>2018-07-09T07:23:13Z</time>
      </trkpt>
      <trkpt lat="45.77139" lon="2.95245">
        <ele>1093.7284009259</ele>
        <time>2018-07-09T07:23:23Z</time>
      </trkpt>
      <trkpt lat="45.77142" lon="2.95242">
        <ele>1093.8991364146</ele>
        <time>2018-07-09T07:23:32Z</time>
      </trkpt>
      <trkpt lat="45.77156" lon="2.95232">
        <ele>1094.0021195977</ele>
        <time>2018-07-09T07:23:41Z</time>
      </trkpt>
      <trkpt lat="45.77167" lon="2.9523">
        <ele>1094.0597329376</ele>
        <time>2018-07-09T07:23:50Z</time>
      </trkpt>
      <trkpt lat="45.77178" lon="2.95224">
        <ele>1094.1225869299</ele>
        <time>2018-07-09T07:24:00Z</time>
      </trkpt>
      <trkpt lat="45.77192" lon="2.95223">
        <ele>1094.1995718446</ele>
        <time>2018-07-09T07:24:10Z</time>
      </trkpt>
      <trkpt lat="45.77202" lon="2.95223">
        <ele>1094.2386528533</ele>
        <time>2018-07-09T07:24:19Z</time>
      </trkpt>
      <trkpt lat="45.77212" lon="2.95218">
        <ele>1094.2109851668</ele>
        <time>2018-07-09T07:24:28Z</time>
      </trkpt>
      <trkpt lat="45.77227" lon="2.9521">
        <ele>1094.1324706208</ele>
        <time>2018-07-09T07:24:38Z</time>
      </trkpt>
      <trkpt lat="45.77233" lon="2.95203">
        <ele>1094.0547549451</ele>
        <time>2018-07-09T07:24:47Z</time>
      </trkpt>
      <trkpt lat="45.77241" lon="2.95201">
        <ele>1093.9150947152</ele>
        <time>2018-07-09T07:24:56Z</time>
      </trkpt>
      <trkpt lat="45.77254" lon="2.95203">
        <ele>1093.7311473943</ele>
        <time>2018-07-09T07:25:05Z</time>
      </trkpt>
      <trkpt lat="45.77264" lon="2.95202">
        <ele>1093.5314874681</ele>
        <time>2018-07-09T07:25:15Z</time>
      </trkpt>
      <trkpt lat="45.7727" lon="2.95202">
        <ele>1093.3895585376</ele>
        <time>2018-07-09T07:25:25Z</time>
      </trkpt>
      <trkpt lat="45.77284" lon="2.95197">
        <ele>1093.1876114591</ele>
        <time>2018-07-09T07:25:35Z</time>
      </trkpt>
      <trkpt lat="45.77289" lon="2.95193">
        <ele>1093.0358792826</ele>
        <time>2018-07-09T07:25:44Z</time>
      </trkpt>
      <trkpt lat="45.77304" lon="2.95192">
        <ele>1092.7896398252</ele>
        <time>2018-07-09T07:25:54Z</time>
      </trkpt>
      <trkpt lat="45.77316" lon="2.95192">
        <ele>1092.600858788</ele>
        <time>2018-07-09T07:26:03Z</time>
      </trkpt>
      <trkpt lat="45.77324" lon="2.95192">
        <ele>1092.3679561447</ele>
        <time>2018-07-09T07:26:12Z</time>
      </trkpt>
      <trkpt lat="45.77341" lon="2.95186">
        <ele>1092.1437048401</ele>
        <time>2018-07-09T07:26:21Z</time>
      </trkpt>
      <trkpt lat="45.77354" lon="2.95186">
        <ele>1091.9059827412</ele>
        <time>2018-07-09T07:26:31Z</time>
      </trkpt>
      <trkpt lat="45.77363" lon="2.95186">
        <ele>1091.7212124515</ele>
        <time>2018-07-09T07:26:41Z</time>
      </trkpt>
      <trkpt lat="45.77368" lon="2.95185">
        <ele>1091.5830038271</ele>
        <time>2018-07-09T07:26:50Z</time>
      </trkpt>
      <trkpt lat="45.77376" lon="2.95183">
        <ele>1091.4049286894</ele>
        <time>2018-07-09T07:27:00Z</time>
      </trkpt>
      <trkpt lat="45.77396" lon="2.95189">
        <ele>1091.2184877456</ele>
        <time>2018-07-09T07:27:10Z</time>
      </trkpt>
      <trkpt lat="45.77401" lon="2.95189">
        <ele>1091.0760093905</ele>
        <time>2018-07-09T07:27:20Z</time>
      </trkpt>
      <trkpt lat="45.77404" lon="2.95191">
        <ele>1090.8870511277</ele>
        <time>2018-07-09T07:27:29Z</time>
      </trkpt>
      <trkpt lat="45.77413" lon="2.95196">
        <ele>1090.6360222495</ele>
        <time>2018-07-09T07:27:38Z</time>
      </trkpt>
      <trkpt lat="45.77426" lon="2.95197">
        <ele>1090.3211778123</ele>
        <time>2018-07-09T07:27:47Z</time>
      </trkpt>
      <trkpt lat="45.77435" lon="2.95197">
        <ele>1089.9953604311</ele>
        <time>2018-07-09T07:27:56Z</time>
      </trkpt>
      <trkpt lat="45.77445" lon="2.95199">
        <ele>1089.6715239776</ele>
        <time>2018-07-09T07:28:05Z</time>
      </trkpt>
      <trkpt lat="45.77452" lon="2.95202">
        <ele>1089.4179726156</ele>
        <time>2018-07-09T07:28:15Z</time>
      </trkpt>
      <trkpt lat="45.77454" lon="2.95203">
        <ele>1089.2405955897</ele>
        <time>2018-07-09T07:28:24Z</time>
      </trkpt>
      <trkpt lat="45.77468" lon="2.95207">
        <ele>1088.9676370014</ele>
        <time>2018-07-09T07:28:34Z</time>
      </trkpt>
      <trkpt lat="45.77483" lon="2.9521">
        <ele>1088.7916914815</ele>
        <time>2018-07-09T07:28:44Z</time>
      </trkpt>
      <trkpt lat="45.77495" lon="2.95213">
        <ele>1088.5856172703</ele>
        <time>2018-07-09T07:28:54Z</time>
      </trkpt>
      <trkpt lat="45.77511" lon="2.9522">
        <ele>1088.3603104763</ele>
        <time>2018-07-09T07:29:03Z</time>
      </trkpt>
      <trkpt lat="45.77529" lon="2.95228">
        <ele>1088.1024445896</ele>
        <time>2018-07-09T07:29:12Z</time>
      </trkpt>
      <trkpt lat="45.77539" lon="2.95233">
        <ele>1087.8149236802</ele>
        <time>2018-07-09T07:29:22Z</time>
      </trkpt>
      <trkpt lat="45.77546" lon="2.95245">
        <ele>1087.5473824675</ele>
        <time>2018-07-09T07:29:32Z</time>
      </trkpt>
      <trkpt lat="45.77552" lon="2.95257">
        <ele>1087.3514837277</ele>
        <time>2018-07-09T07:29:41Z</time>
      </trkpt>
      <trkpt lat="45.77557" lon="2.95269">
        <ele>1087.1483685977</ele>
        <time>2018-07-09T07:29:50Z</time>
      </trkpt>
      <trkpt lat="45.77566" lon="2.9528">
        <ele>1086.9557086384</ele>
        <time>2018-07-09T07:29:59Z</time>
      </trkpt>
      <trkpt lat="45.7758" lon="2.95286">
        <ele>1086.7553317677</ele>
        <time>2018-07-09T07:30:08Z</time>
      </trkpt>
      <trkpt lat="45.77589" lon="2.95287">
        <ele>1086.5804140605</ele>
        <time>2018-07-09T07:30:17Z</time>
      </trkpt>
      <trkpt lat="45.77593" lon="2.95281">
        <ele>1086.3779036614</ele>
        <time>2018-07-09T07:30:27Z</time>
      </trkpt>
      <trkpt lat="45.77606" lon="2.95272">
        <ele>1086.2015353864</ele>
        <time>2018-07-09T07:30:37Z</time>
      </trkpt>
      <trkpt lat="45.77613" lon="2.95267">
        <ele>1086.0551643298</ele>
        <time>2018-07-09T07:30:46Z</time>
      </trkpt>
      <trkpt lat="45.77619" lon="2.95264">
        <ele>1085.9409682902</ele>
        <time>2018-07-09T07:30:55Z</time>
      </trkpt>
      <trkpt lat="45.77632" lon="2.9526">
        <ele>1085.8034014836</ele>
        <time>2018-07-09T07:31:05Z</time>
      </trkpt>
      <trkpt lat="45.77642" lon="2.95255">
        <ele>1085.7250330863</ele>
        <time>2018-07-09T07:31:14Z</time>
      </trkpt>
      <trkpt lat="45.77648" lon="2.95246">
        <ele>1085.6400846066</ele>
        <time>2018-07-09T07:31:24Z</time>
      </trkpt>
      <trkpt lat="45.77657" lon="2.95243">
        <ele>1085.5611020004</ele>
        <time>2018-07-09T07:31:33Z</time>
      </trkpt>
      <trkpt lat="45.77668" lon="2.95241">
        <ele>1085.5222837145</ele>
        <time>2018-07-09T07:31:43Z</time>
      </trkpt>
      <trkpt lat="45.77669" lon="2.95242">
        <ele>1085.5179845204</ele>
        <time>2018-07-09T07:32:00Z</time>
      </trkpt>
      <trkpt lat="45.7767" lon="2.95241">
        <ele>1085.5091224867</ele>
        <time>2018-07-09T07:32:10Z</time>
      </trkpt>
      <trkpt lat="45.77671" lon="2.95241">
        <ele>1085.5070939409</ele>
        <time>2018-07-09T07:32:22Z</time>
      </trkpt>
      <trkpt lat="45.77679" lon="2.95241">
        <ele>1085.4921191375</ele>
        <time>2018-07-09T07:32:32Z</time>
      </trkpt>
      <trkpt lat="45.77691" lon="2.95234">
        <ele>1085.4055750558</ele>
        <time>2018-07-09T07:32:42Z</time>
      </trkpt>
      <trkpt lat="45.777" lon="2.95228">
        <ele>1085.3207004743</ele>
        <time>2018-07-09T07:32:51Z</time>
      </trkpt>
      <trkpt lat="45.77706" lon="2.95229">
        <ele>1085.2765242856</ele>
        <time>2018-07-09T07:33:00Z</time>
      </trkpt>
      <trkpt lat="45.77717" lon="2.95225">
        <ele>1085.2198999956</ele>
        <time>2018-07-09T07:33:10Z</time>
      </trkpt>
      <trkpt lat="45.7772" lon="2.95232">
        <ele>1085.1956165899</ele>
        <time>2018-07-09T07:33:20Z</time>
      </trkpt>
      <trkpt lat="45.77727" lon="2.95241">
        <ele>1085.1348311423</ele>
        <time>2018-07-09T07:33:29Z</time>
      </trkpt>
      <trkpt lat="45.77731" lon="2.95247">
        <ele>1085.0417559254</ele>
        <time>2018-07-09T07:33:39Z</time>
      </trkpt>
      <trkpt lat="45.77735" lon="2.95248">
        <ele>1084.9377524416</ele>
        <time>2018-07-09T07:33:48Z</time>
      </trkpt>
      <trkpt lat="45.77742" lon="2.95244">
        <ele>1084.8933091442</ele>
        <time>2018-07-09T07:33:58Z</time>
      </trkpt>
      <trkpt lat="45.77743" lon="2.95249">
        <ele>1084.7705285448</ele>
        <time>2018-07-09T07:34:07Z</time>
      </trkpt>
      <trkpt lat="45.77746" lon="2.9525">
        <ele>1084.6877043029</ele>
        <time>2018-07-09T07:34:17Z</time>
      </trkpt>
      <trkpt lat="45.77751" lon="2.95252">
        <ele>1084.5740576286</ele>
        <time>2018-07-09T07:34:27Z</time>
      </trkpt>
      <trkpt lat="45.77761" lon="2.95257">
        <ele>1084.4808624585</ele>
        <time>2018-07-09T07:34:36Z</time>
      </trkpt>
      <trkpt lat="45.77773" lon="2.95257">
        <ele>1084.3398063518</ele>
        <time>2018-07-09T07:34:46Z</time>
      </trkpt>
      <trkpt lat="45.77788" lon="2.95261">
        <ele>1084.0931120057</ele>
        <time>2018-07-09T07:34:56Z</time>
      </trkpt>
      <trkpt lat="45.77802" lon="2.9527">
        <ele>1083.8896932784</ele>
        <time>2018-07-09T07:35:05Z</time>
      </trkpt>
      <trkpt lat="45.77811" lon="2.95274">
        <ele>1083.7320420534</ele>
        <time>2018-07-09T07:35:14Z</time>
      </trkpt>
      <trkpt lat="45.77818" lon="2.95277">
        <ele>1083.5356779123</ele>
        <time>2018-07-09T07:35:24Z</time>
      </trkpt>
      <trkpt lat="45.77822" lon="2.95277">
        <ele>1083.4670449535</ele>
        <time>2018-07-09T07:35:34Z</time>
      </trkpt>
      <trkpt lat="45.77838" lon="2.95281">
        <ele>1083.286428103</ele>
        <time>2018-07-09T07:35:43Z</time>
      </trkpt>
      <trkpt lat="45.77846" lon="2.95287">
        <ele>1083.0767411507</ele>
        <time>2018-07-09T07:35:53Z</time>
      </trkpt>
      <trkpt lat="45.7785" lon="2.95288">
        <ele>1082.9098612054</ele>
        <time>2018-07-09T07:36:02Z</time>
      </trkpt>
      <trkpt lat="45.77859" lon="2.95298">
        <ele>1082.7623432382</ele>
        <time>2018-07-09T07:36:11Z</time>
      </trkpt>
      <trkpt lat="45.77871" lon="2.95307">
        <ele>1082.6204280883</ele>
        <time>2018-07-09T07:36:20Z</time>
      </trkpt>
      <trkpt lat="45.77883" lon="2.95316">
        <ele>1082.4711767938</ele>
        <time>2018-07-09T07:36:29Z</time>
      </trkpt>
      <trkpt lat="45.7789" lon="2.95316">
        <ele>1082.3196517272</ele>
        <time>2018-07-09T07:36:39Z</time>
      </trkpt>
      <trkpt lat="45.77907" lon="2.95326">
        <ele>1082.1321541487</ele>
        <time>2018-07-09T07:36:48Z</time>
      </trkpt>
      <trkpt lat="45.77917" lon="2.95329">
        <ele>1082.0093639703</ele>
        <time>2018-07-09T07:36:57Z</time>
      </trkpt>
      <trkpt lat="45.77928" lon="2.9534">
        <ele>1081.8657702281</ele>
        <time>2018-07-09T07:37:07Z</time>
      </trkpt>
      <trkpt lat="45.77936" lon="2.95341">
        <ele>1081.7694544907</ele>
        <time>2018-07-09T07:37:17Z</time>
      </trkpt>
      <trkpt lat="45.77957" lon="2.95351">
        <ele>1081.6464648799</ele>
        <time>2018-07-09T07:37:26Z</time>
      </trkpt>
      <trkpt lat="45.77975" lon="2.95356">
        <ele>1081.5044532663</ele>
        <time>2018-07-09T07:37:36Z</time>
      </trkpt>
      <trkpt lat="45.77983" lon="2.95361">
        <ele>1081.4019705957</ele>
        <time>2018-07-09T07:37:45Z</time>
      </trkpt>
      <trkpt lat="45.77993" lon="2.95364">
        <ele>1081.288989828</ele>
        <time>2018-07-09T07:37:55Z</time>
      </trkpt>
      <trkpt lat="45.78" lon="2.95367">
        <ele>1081.1960571387</ele>
        <time>2018-07-09T07:38:04Z</time>
      </trkpt>
      <trkpt lat="45.7801" lon="2.95383">
        <ele>1081.1088806479</ele>
        <time>2018-07-09T07:38:13Z</time>
      </trkpt>
      <trkpt lat="45.78015" lon="2.95397">
        <ele>1081.0535360592</ele>
        <time>2018-07-09T07:38:23Z</time>
      </trkpt>
      <trkpt lat="45.78018" lon="2.95408">
        <ele>1081.0117203397</ele>
        <time>2018-07-09T07:38:32Z</time>
      </trkpt>
      <trkpt lat="45.78022" lon="2.95415">
        <ele>1080.9938575548</ele>
        <time>2018-07-09T07:38:41Z</time>
      </trkpt>
      <trkpt lat="45.78024" lon="2.95419">
        <ele>1080.9921766273</ele>
        <time>2018-07-09T07:38:50Z</time>
      </trkpt>
      <trkpt lat="45.78025" lon="2.95423">
        <ele>1081.0103187595</ele>
        <time>2018-07-09T07:39:00Z</time>
      </trkpt>
      <trkpt lat="45.7803" lon="2.95436">
        <ele>1081.0410450614</ele>
        <time>2018-07-09T07:39:09Z</time>
      </trkpt>
      <trkpt lat="45.78044" lon="2.95456">
        <ele>1081.0953215323</ele>
        <time>2018-07-09T07:39:18Z</time>
      </trkpt>
      <trkpt lat="45.7805" lon="2.95465">
        <ele>1081.1800393874</ele>
        <time>2018-07-09T07:39:27Z</time>
      </trkpt>
      <trkpt lat="45.78055" lon="2.95481">
        <ele>1081.270715192</ele>
        <time>2018-07-09T07:39:37Z</time>
      </trkpt>
      <trkpt lat="45.78061" lon="2.95493">
        <ele>1081.3398626108</ele>
        <time>2018-07-09T07:39:46Z</time>
      </trkpt>
      <trkpt lat="45.7807" lon="2.95507">
        <ele>1081.3996042768</ele>
        <time>2018-07-09T07:39:55Z</time>
      </trkpt>
      <trkpt lat="45.78074" lon="2.95517">
        <ele>1081.4599760813</ele>
        <time>2018-07-09T07:40:05Z</time>
      </trkpt>
      <trkpt lat="45.78078" lon="2.95529">
        <ele>1081.5154489904</ele>
        <time>2018-07-09T07:40:14Z</time>
      </trkpt>
      <trkpt lat="45.78079" lon="2.95544">
        <ele>1081.5615964813</ele>
        <time>2018-07-09T07:40:23Z</time>
      </trkpt>
      <trkpt lat="45.7808" lon="2.95554">
        <ele>1081.6010141394</ele>
        <time>2018-07-09T07:40:32Z</time>
      </trkpt>
      <trkpt lat="45.78085" lon="2.95573">
        <ele>1081.632309191</ele>
        <time>2018-07-09T07:40:42Z</time>
      </trkpt>
      <trkpt lat="45.78088" lon="2.95583">
        <ele>1081.6464323083</ele>
        <time>2018-07-09T07:40:51Z</time>
      </trkpt>
      <trkpt lat="45.78091" lon="2.95592">
        <ele>1081.6640427786</ele>
        <time>2018-07-09T07:41:01Z</time>
      </trkpt>
      <trkpt lat="45.78096" lon="2.95597">
        <ele>1081.6602936242</ele>
        <time>2018-07-09T07:41:11Z</time>
      </trkpt>
      <trkpt lat="45.78098" lon="2.95604">
        <ele>1081.6541275363</ele>
        <time>2018-07-09T07:41:20Z</time>
      </trkpt>
      <trkpt lat="45.78103" lon="2.95616">
        <ele>1081.6454280468</ele>
        <time>2018-07-09T07:41:29Z</time>
      </trkpt>
      <trkpt lat="45.7811" lon="2.95631">
        <ele>1081.6344658143</ele>
        <time>2018-07-09T07:41:38Z</time>
      </trkpt>
      <trkpt lat="45.78115" lon="2.95643">
        <ele>1081.6424115868</ele>
        <time>2018-07-09T07:41:47Z</time>
      </trkpt>
      <trkpt lat="45.78119" lon="2.95657">
        <ele>1081.6494521599</ele>
        <time>2018-07-09T07:41:57Z</time>
      </trkpt>
      <trkpt lat="45.78123" lon="2.95669">
        <ele>1081.649634354</ele>
        <time>2018-07-09T07:42:06Z</time>
      </trkpt>
      <trkpt lat="45.78129" lon="2.95681">
        <ele>1081.6451616723</ele>
        <time>2018-07-09T07:42:15Z</time>
      </trkpt>
      <trkpt lat="45.78145" lon="2.957">
        <ele>1081.6186700364</ele>
        <time>2018-07-09T07:42:24Z</time>
      </trkpt>
      <trkpt lat="45.78161" lon="2.95727">
        <ele>1081.6030148699</ele>
        <time>2018-07-09T07:42:34Z</time>
      </trkpt>
      <trkpt lat="45.78169" lon="2.95741">
        <ele>1081.5958667933</ele>
        <time>2018-07-09T07:42:43Z</time>
      </trkpt>
      <trkpt lat="45.78177" lon="2.95754">
        <ele>1081.58971462</ele>
        <time>2018-07-09T07:42:52Z</time>
      </trkpt>
      <trkpt lat="45.78184" lon="2.95767">
        <ele>1081.5829471219</ele>
        <time>2018-07-09T07:43:01Z</time>
      </trkpt>
      <trkpt lat="45.78191" lon="2.9578">
        <ele>1081.5540190807</ele>
        <time>2018-07-09T07:43:10Z</time>
      </trkpt>
      <trkpt lat="45.78197" lon="2.95795">
        <ele>1081.5092904227</ele>
        <time>2018-07-09T07:43:20Z</time>
      </trkpt>
      <trkpt lat="45.78204" lon="2.95807">
        <ele>1081.4652593252</ele>
        <time>2018-07-09T07:43:29Z</time>
      </trkpt>
      <trkpt lat="45.78211" lon="2.95818">
        <ele>1081.3953299598</ele>
        <time>2018-07-09T07:43:39Z</time>
      </trkpt>
      <trkpt lat="45.78217" lon="2.95829">
        <ele>1081.3422620984</ele>
        <time>2018-07-09T07:43:48Z</time>
      </trkpt>
      <trkpt lat="45.78218" lon="2.95841">
        <ele>1081.2913695093</ele>
        <time>2018-07-09T07:43:58Z</time>
      </trkpt>
      <trkpt lat="45.78216" lon="2.95857">
        <ele>1081.2327044066</ele>
        <time>2018-07-09T07:44:07Z</time>
      </trkpt>
      <trkpt lat="45.78221" lon="2.95873">
        <ele>1081.166494365</ele>
        <time>2018-07-09T07:44:17Z</time>
      </trkpt>
      <trkpt lat="45.78227" lon="2.9588">
        <ele>1081.1336354255</ele>
        <time>2018-07-09T07:44:27Z</time>
      </trkpt>
      <trkpt lat="45.78228" lon="2.95883">
        <ele>1081.1230179091</ele>
        <time>2018-07-09T07:44:36Z</time>
      </trkpt>
      <trkpt lat="45.78228" lon="2.95893">
        <ele>1081.1114216217</ele>
        <time>2018-07-09T07:44:45Z</time>
      </trkpt>
      <trkpt lat="45.78231" lon="2.95907">
        <ele>1081.1192126977</ele>
        <time>2018-07-09T07:44:54Z</time>
      </trkpt>
      <trkpt lat="45.78242" lon="2.95923">
        <ele>1081.1474281868</ele>
        <time>2018-07-09T07:45:04Z</time>
      </trkpt>
      <trkpt lat="45.78247" lon="2.95937">
        <ele>1081.1718196328</ele>
        <time>2018-07-09T07:45:13Z</time>
      </trkpt>
      <trkpt lat="45.78256" lon="2.95952">
        <ele>1081.20759871</ele>
        <time>2018-07-09T07:45:23Z</time>
      </trkpt>
      <trkpt lat="45.78261" lon="2.95966">
        <ele>1081.2450793034</ele>
        <time>2018-07-09T07:45:32Z</time>
      </trkpt>
      <trkpt lat="45.78267" lon="2.95982">
        <ele>1081.2831709707</ele>
        <time>2018-07-09T07:45:41Z</time>
      </trkpt>
      <trkpt lat="45.7827" lon="2.95994">
        <ele>1081.3191759497</ele>
        <time>2018-07-09T07:45:50Z</time>
      </trkpt>
      <trkpt lat="45.7827" lon="2.96013">
        <ele>1081.3526489466</ele>
        <time>2018-07-09T07:46:00Z</time>
      </trkpt>
      <trkpt lat="45.78273" lon="2.96029">
        <ele>1081.3766216785</ele>
        <time>2018-07-09T07:46:09Z</time>
      </trkpt>
      <trkpt lat="45.78278" lon="2.96038">
        <ele>1081.4060011625</ele>
        <time>2018-07-09T07:46:18Z</time>
      </trkpt>
      <trkpt lat="45.78285" lon="2.96051">
        <ele>1081.4330811892</ele>
        <time>2018-07-09T07:46:27Z</time>
      </trkpt>
      <trkpt lat="45.78293" lon="2.96067">
        <ele>1081.4625061871</ele>
        <time>2018-07-09T07:46:36Z</time>
      </trkpt>
      <trkpt lat="45.78301" lon="2.96084">
        <ele>1081.4923675162</ele>
        <time>2018-07-09T07:46:46Z</time>
      </trkpt>
      <trkpt lat="45.78309" lon="2.96095">
        <ele>1081.555088283</ele>
        <time>2018-07-09T07:46:56Z</time>
      </trkpt>
      <trkpt lat="45.78314" lon="2.96103">
        <ele>1081.6392481811</ele>
        <time>2018-07-09T07:47:05Z</time>
      </trkpt>
      <trkpt lat="45.78322" lon="2.96114">
        <ele>1081.7969592523</ele>
        <time>2018-07-09T07:47:15Z</time>
      </trkpt>
      <trkpt lat="45.78327" lon="2.9612">
        <ele>1081.9537603065</ele>
        <time>2018-07-09T07:47:25Z</time>
      </trkpt>
      <trkpt lat="45.78335" lon="2.96127">
        <ele>1082.0849624097</ele>
        <time>2018-07-09T07:47:34Z</time>
      </trkpt>
      <trkpt lat="45.7835" lon="2.96123">
        <ele>1082.2038189575</ele>
        <time>2018-07-09T07:47:43Z</time>
      </trkpt>
      <trkpt lat="45.78362" lon="2.96122">
        <ele>1082.3050239366</ele>
        <time>2018-07-09T07:47:52Z</time>
      </trkpt>
      <trkpt lat="45.78372" lon="2.96121">
        <ele>1082.3959469454</ele>
        <time>2018-07-09T07:48:01Z</time>
      </trkpt>
      <trkpt lat="45.78388" lon="2.96114">
        <ele>1082.488999809</ele>
        <time>2018-07-09T07:48:11Z</time>
      </trkpt>
      <trkpt lat="45.78401" lon="2.96108">
        <ele>1082.5651159104</ele>
        <time>2018-07-09T07:48:20Z</time>
      </trkpt>
      <trkpt lat="45.78419" lon="2.96104">
        <ele>1082.6477762434</ele>
        <time>2018-07-09T07:48:30Z</time>
      </trkpt>
      <trkpt lat="45.78438" lon="2.96106">
        <ele>1082.7301569653</ele>
        <time>2018-07-09T07:48:40Z</time>
      </trkpt>
      <trkpt lat="45.78457" lon="2.96109">
        <ele>1082.7982604886</ele>
        <time>2018-07-09T07:48:49Z</time>
      </trkpt>
      <trkpt lat="45.78467" lon="2.96116">
        <ele>1082.8651479062</ele>
        <time>2018-07-09T07:48:58Z</time>
      </trkpt>
      <trkpt lat="45.78481" lon="2.96132">
        <ele>1082.9489329116</ele>
        <time>2018-07-09T07:49:07Z</time>
      </trkpt>
      <trkpt lat="45.78497" lon="2.96146">
        <ele>1083.0654472462</ele>
        <time>2018-07-09T07:49:16Z</time>
      </trkpt>
      <trkpt lat="45.78502" lon="2.96158">
        <ele>1083.2150529566</ele>
        <time>2018-07-09T07:49:26Z</time>
      </trkpt>
      <trkpt lat="45.78501" lon="2.96175">
        <ele>1083.3659567361</ele>
        <time>2018-07-09T07:49:35Z</time>
      </trkpt>
      <trkpt lat="45.78494" lon="2.96184">
        <ele>1083.5134843689</ele>
        <time>2018-07-09T07:49:44Z</time>
      </trkpt>
      <trkpt lat="45.78483" lon="2.9619">
        <ele>1083.6654325634</ele>
        <time>2018-07-09T07:49:54Z</time>
      </trkpt>
      <trkpt lat="45.78476" lon="2.96192">
        <ele>1083.7934115422</ele>
        <time>2018-07-09T07:50:03Z</time>
      </trkpt>
      <trkpt lat="45.78465" lon="2.96195">
        <ele>1083.9078402191</ele>
        <time>2018-07-09T07:50:13Z</time>
      </trkpt>
      <trkpt lat="45.78448" lon="2.96203">
        <ele>1083.9309154023</ele>
        <time>2018-07-09T07:50:23Z</time>
      </trkpt>
      <trkpt lat="45.78433" lon="2.96214">
        <ele>1083.9506945361</ele>
        <time>2018-07-09T07:50:32Z</time>
      </trkpt>
      <trkpt lat="45.7842" lon="2.96229">
        <ele>1084.0469872674</ele>
        <time>2018-07-09T07:50:42Z</time>
      </trkpt>
      <trkpt lat="45.78408" lon="2.96243">
        <ele>1084.2164839306</ele>
        <time>2018-07-09T07:50:51Z</time>
      </trkpt>
      <trkpt lat="45.78402" lon="2.96265">
        <ele>1084.4610788666</ele>
        <time>2018-07-09T07:51:00Z</time>
      </trkpt>
      <trkpt lat="45.78393" lon="2.96283">
        <ele>1084.7967932334</ele>
        <time>2018-07-09T07:51:09Z</time>
      </trkpt>
      <trkpt lat="45.78388" lon="2.96302">
        <ele>1085.2088036745</ele>
        <time>2018-07-09T07:51:18Z</time>
      </trkpt>
      <trkpt lat="45.78386" lon="2.96318">
        <ele>1085.7307496235</ele>
        <time>2018-07-09T07:51:27Z</time>
      </trkpt>
      <trkpt lat="45.78387" lon="2.96337">
        <ele>1086.5058077469</ele>
        <time>2018-07-09T07:51:37Z</time>
      </trkpt>
      <trkpt lat="45.78386" lon="2.96348">
        <ele>1087.2105190524</ele>
        <time>2018-07-09T07:51:46Z</time>
      </trkpt>
      <trkpt lat="45.78379" lon="2.96364">
        <ele>1087.6090116157</ele>
        <time>2018-07-09T07:51:55Z</time>
      </trkpt>
      <trkpt lat="45.78379" lon="2.96365">
        <ele>1087.7857289563</ele>
        <time>2018-07-09T07:52:11Z</time>
      </trkpt>
      <trkpt lat="45.78379" lon="2.96366">
        <ele>1087.963079329</ele>
        <time>2018-07-09T07:52:23Z</time>
      </trkpt>
      <trkpt lat="45.78378" lon="2.96382">
        <ele>1089.6011592388</ele>
        <time>2018-07-09T07:52:33Z</time>
      </trkpt>
      <trkpt lat="45.78376" lon="2.96396">
        <ele>1090.9688192313</ele>
        <time>2018-07-09T07:52:42Z</time>
      </trkpt>
      <trkpt lat="45.78376" lon="2.96405">
        <ele>1092.2076577338</ele>
        <time>2018-07-09T07:52:51Z</time>
      </trkpt>
      <trkpt lat="45.78376" lon="2.96425">
        <ele>1093.5316771702</ele>
        <time>2018-07-09T07:53:01Z</time>
      </trkpt>
      <trkpt lat="45.78378" lon="2.96448">
        <ele>1094.8179295785</ele>
        <time>2018-07-09T07:53:11Z</time>
      </trkpt>
      <trkpt lat="45.78381" lon="2.96466">
        <ele>1095.9242731711</ele>
        <time>2018-07-09T07:53:20Z</time>
      </trkpt>
      <trkpt lat="45.78384" lon="2.9648">
        <ele>1096.9826062587</ele>
        <time>2018-07-09T07:53:29Z</time>
      </trkpt>
      <trkpt lat="45.78385" lon="2.96493">
        <ele>1098.007730385</ele>
        <time>2018-07-09T07:53:38Z</time>
      </trkpt>
      <trkpt lat="45.78389" lon="2.965">
        <ele>1099.1162366141</ele>
        <time>2018-07-09T07:53:48Z</time>
      </trkpt>
      <trkpt lat="45.7839" lon="2.96511">
        <ele>1100.2469108465</ele>
        <time>2018-07-09T07:53:58Z</time>
      </trkpt>
      <trkpt lat="45.78391" lon="2.96523">
        <ele>1101.3067947539</ele>
        <time>2018-07-09T07:54:07Z</time>
      </trkpt>
      <trkpt lat="45.78392" lon="2.9654">
        <ele>1102.3468866422</ele>
        <time>2018-07-09T07:54:17Z</time>
      </trkpt>
      <trkpt lat="45.78394" lon="2.96554">
        <ele>1103.3939563451</ele>
        <time>2018-07-09T07:54:27Z</time>
      </trkpt>
      <trkpt lat="45.78397" lon="2.96568">
        <ele>1104.3062569421</ele>
        <time>2018-07-09T07:54:36Z</time>
      </trkpt>
      <trkpt lat="45.78398" lon="2.9658">
        <ele>1105.3442473474</ele>
        <time>2018-07-09T07:54:46Z</time>
      </trkpt>
      <trkpt lat="45.78399" lon="2.96589">
        <ele>1106.0779340363</ele>
        <time>2018-07-09T07:54:55Z</time>
      </trkpt>
      <trkpt lat="45.78404" lon="2.96592">
        <ele>1106.4822057054</ele>
        <time>2018-07-09T07:55:05Z</time>
      </trkpt>
      <trkpt lat="45.78404" lon="2.96591">
        <ele>1106.6935535599</ele>
        <time>2018-07-09T07:55:14Z</time>
      </trkpt>
      <trkpt lat="45.78403" lon="2.96589">
        <ele>1107.1675959317</ele>
        <time>2018-07-09T07:55:23Z</time>
      </trkpt>
      <trkpt lat="45.78399" lon="2.96589">
        <ele>1108.0672000299</ele>
        <time>2018-07-09T07:55:33Z</time>
      </trkpt>
      <trkpt lat="45.78397" lon="2.96588">
        <ele>1108.8611507829</ele>
        <time>2018-07-09T07:55:42Z</time>
      </trkpt>
      <trkpt lat="45.78397" lon="2.9659">
        <ele>1110.2167077486</ele>
        <time>2018-07-09T07:57:41Z</time>
      </trkpt>
      <trkpt lat="45.78396" lon="2.96591">
        <ele>1110.3343860843</ele>
        <time>2018-07-09T07:57:51Z</time>
      </trkpt>
      <trkpt lat="45.78397" lon="2.9659">
        <ele>1111.8576705054</ele>
        <time>2018-07-09T07:59:51Z</time>
      </trkpt>
      <trkpt lat="45.78396" lon="2.96586">
        <ele>1112.2866658329</ele>
        <time>2018-07-09T08:00:01Z</time>
      </trkpt>
      <trkpt lat="45.78395" lon="2.96585">
        <ele>1112.5539778998</ele>
        <time>2018-07-09T08:00:25Z</time>
      </trkpt>
      <trkpt lat="45.78395" lon="2.96584">
        <ele>1112.8760645639</ele>
        <time>2018-07-09T08:00:54Z</time>
      </trkpt>
      <trkpt lat="45.78395" lon="2.96585">
        <ele>1113.4958787421</ele>
        <time>2018-07-09T08:01:14Z</time>
      </trkpt>
      <trkpt lat="45.78396" lon="2.96586">
        <ele>1113.641606094</ele>
        <time>2018-07-09T08:01:24Z</time>
      </trkpt>
      <trkpt lat="45.78396" lon="2.96584">
        <ele>1113.7938360201</ele>
        <time>2018-07-09T08:01:34Z</time>
      </trkpt>
      <trkpt lat="45.78396" lon="2.96583">
        <ele>1114.0236691213</ele>
        <time>2018-07-09T08:01:50Z</time>
      </trkpt>
      <trkpt lat="45.78395" lon="2.96582">
        <ele>1114.522284312</ele>
        <time>2018-07-09T08:02:19Z</time>
      </trkpt>
      <trkpt lat="45.78395" lon="2.96584">
        <ele>1115.3385179564</ele>
        <time>2018-07-09T08:02:28Z</time>
      </trkpt>
      <trkpt lat="45.78396" lon="2.9659">
        <ele>1116.2736541071</ele>
        <time>2018-07-09T08:02:37Z</time>
      </trkpt>
      <trkpt lat="45.78397" lon="2.96597">
        <ele>1116.7511068203</ele>
        <time>2018-07-09T08:02:47Z</time>
      </trkpt>
      <trkpt lat="45.78397" lon="2.96596">
        <ele>1117.0263916367</ele>
        <time>2018-07-09T08:02:57Z</time>
      </trkpt>
      <trkpt lat="45.78397" lon="2.96589">
        <ele>1117.1999287812</ele>
        <time>2018-07-09T08:03:06Z</time>
      </trkpt>
      <trkpt lat="45.78399" lon="2.96588">
        <ele>1117.5276562927</ele>
        <time>2018-07-09T08:03:15Z</time>
      </trkpt>
      <trkpt lat="45.78398" lon="2.96589">
        <ele>1117.907726648</ele>
        <time>2018-07-09T08:03:24Z</time>
      </trkpt>
      <trkpt lat="45.78398" lon="2.9659">
        <ele>1118.1288574951</ele>
        <time>2018-07-09T08:03:34Z</time>
      </trkpt>
      <trkpt lat="45.78397" lon="2.96593">
        <ele>1118.6475220028</ele>
        <time>2018-07-09T08:03:43Z</time>
      </trkpt>
      <trkpt lat="45.78396" lon="2.96594">
        <ele>1118.7910124582</ele>
        <time>2018-07-09T08:03:56Z</time>
      </trkpt>
      <trkpt lat="45.78396" lon="2.96595">
        <ele>1119.2547018085</ele>
        <time>2018-07-09T08:04:44Z</time>
      </trkpt>
      <trkpt lat="45.78399" lon="2.96609">
        <ele>1119.7898818919</ele>
        <time>2018-07-09T08:04:54Z</time>
      </trkpt>
      <trkpt lat="45.78403" lon="2.96621">
        <ele>1120.1977833074</ele>
        <time>2018-07-09T08:05:03Z</time>
      </trkpt>
      <trkpt lat="45.78407" lon="2.96632">
        <ele>1120.5850688152</ele>
        <time>2018-07-09T08:05:13Z</time>
      </trkpt>
      <trkpt lat="45.78412" lon="2.96645">
        <ele>1120.9223858434</ele>
        <time>2018-07-09T08:05:23Z</time>
      </trkpt>
      <trkpt lat="45.78414" lon="2.96656">
        <ele>1121.1925650373</ele>
        <time>2018-07-09T08:05:32Z</time>
      </trkpt>
      <trkpt lat="45.78418" lon="2.9667">
        <ele>1121.4299576601</ele>
        <time>2018-07-09T08:05:41Z</time>
      </trkpt>
      <trkpt lat="45.78424" lon="2.96687">
        <ele>1121.6651158343</ele>
        <time>2018-07-09T08:05:51Z</time>
      </trkpt>
      <trkpt lat="45.78427" lon="2.96701">
        <ele>1121.8651617586</ele>
        <time>2018-07-09T08:06:00Z</time>
      </trkpt>
      <trkpt lat="45.7843" lon="2.96715">
        <ele>1122.0440263926</ele>
        <time>2018-07-09T08:06:09Z</time>
      </trkpt>
      <trkpt lat="45.78432" lon="2.96731">
        <ele>1122.203793205</ele>
        <time>2018-07-09T08:06:18Z</time>
      </trkpt>
      <trkpt lat="45.78435" lon="2.96746">
        <ele>1122.3477429793</ele>
        <time>2018-07-09T08:06:27Z</time>
      </trkpt>
      <trkpt lat="45.78436" lon="2.96761">
        <ele>1122.4766348998</ele>
        <time>2018-07-09T08:06:36Z</time>
      </trkpt>
      <trkpt lat="45.78438" lon="2.96778">
        <ele>1122.6086317048</ele>
        <time>2018-07-09T08:06:46Z</time>
      </trkpt>
      <trkpt lat="45.78445" lon="2.96792">
        <ele>1122.7269162773</ele>
        <time>2018-07-09T08:06:56Z</time>
      </trkpt>
      <trkpt lat="45.78449" lon="2.96806">
        <ele>1122.8209811582</ele>
        <time>2018-07-09T08:07:05Z</time>
      </trkpt>
      <trkpt lat="45.78453" lon="2.9682">
        <ele>1122.9165341125</ele>
        <time>2018-07-09T08:07:14Z</time>
      </trkpt>
      <trkpt lat="45.7846" lon="2.96835">
        <ele>1123.0364540503</ele>
        <time>2018-07-09T08:07:24Z</time>
      </trkpt>
      <trkpt lat="45.78467" lon="2.96849">
        <ele>1123.1715928622</ele>
        <time>2018-07-09T08:07:34Z</time>
      </trkpt>
      <trkpt lat="45.78473" lon="2.9686">
        <ele>1123.2896434149</ele>
        <time>2018-07-09T08:07:43Z</time>
      </trkpt>
      <trkpt lat="45.78482" lon="2.96873">
        <ele>1123.4096095241</ele>
        <time>2018-07-09T08:07:53Z</time>
      </trkpt>
      <trkpt lat="45.78489" lon="2.96885">
        <ele>1123.5178475397</ele>
        <time>2018-07-09T08:08:02Z</time>
      </trkpt>
      <trkpt lat="45.78496" lon="2.96899">
        <ele>1123.643110174</ele>
        <time>2018-07-09T08:08:12Z</time>
      </trkpt>
      <trkpt lat="45.78503" lon="2.96914">
        <ele>1123.7514153153</ele>
        <time>2018-07-09T08:08:21Z</time>
      </trkpt>
      <trkpt lat="45.78509" lon="2.96929">
        <ele>1123.8648838868</ele>
        <time>2018-07-09T08:08:31Z</time>
      </trkpt>
      <trkpt lat="45.78512" lon="2.96948">
        <ele>1123.9735919586</ele>
        <time>2018-07-09T08:08:41Z</time>
      </trkpt>
      <trkpt lat="45.78518" lon="2.96961">
        <ele>1124.0539933407</ele>
        <time>2018-07-09T08:08:50Z</time>
      </trkpt>
      <trkpt lat="45.78518" lon="2.96974">
        <ele>1124.1128096573</ele>
        <time>2018-07-09T08:08:59Z</time>
      </trkpt>
      <trkpt lat="45.7852" lon="2.96987">
        <ele>1124.1478214662</ele>
        <time>2018-07-09T08:09:08Z</time>
      </trkpt>
      <trkpt lat="45.78526" lon="2.97002">
        <ele>1124.1611331877</ele>
        <time>2018-07-09T08:09:18Z</time>
      </trkpt>
      <trkpt lat="45.7853" lon="2.97014">
        <ele>1124.1432696509</ele>
        <time>2018-07-09T08:09:27Z</time>
      </trkpt>
      <trkpt lat="45.78532" lon="2.97025">
        <ele>1124.1062958606</ele>
        <time>2018-07-09T08:09:36Z</time>
      </trkpt>
      <trkpt lat="45.78533" lon="2.97039">
        <ele>1124.0429544883</ele>
        <time>2018-07-09T08:09:46Z</time>
      </trkpt>
      <trkpt lat="45.78527" lon="2.97057">
        <ele>1123.9617387819</ele>
        <time>2018-07-09T08:09:56Z</time>
      </trkpt>
      <trkpt lat="45.78521" lon="2.97067">
        <ele>1123.8828478102</ele>
        <time>2018-07-09T08:10:05Z</time>
      </trkpt>
      <trkpt lat="45.78514" lon="2.97074">
        <ele>1123.8063438218</ele>
        <time>2018-07-09T08:10:14Z</time>
      </trkpt>
      <trkpt lat="45.78513" lon="2.97078">
        <ele>1123.7235818281</ele>
        <time>2018-07-09T08:10:23Z</time>
      </trkpt>
      <trkpt lat="45.7851" lon="2.97092">
        <ele>1123.6411544575</ele>
        <time>2018-07-09T08:10:32Z</time>
      </trkpt>
      <trkpt lat="45.78503" lon="2.9711">
        <ele>1123.5464984678</ele>
        <time>2018-07-09T08:10:42Z</time>
      </trkpt>
      <trkpt lat="45.78501" lon="2.97121">
        <ele>1123.4489222821</ele>
        <time>2018-07-09T08:10:51Z</time>
      </trkpt>
      <trkpt lat="45.78496" lon="2.97133">
        <ele>1123.3322508149</ele>
        <time>2018-07-09T08:11:00Z</time>
      </trkpt>
      <trkpt lat="45.78486" lon="2.9714">
        <ele>1123.1988786384</ele>
        <time>2018-07-09T08:11:10Z</time>
      </trkpt>
      <trkpt lat="45.78481" lon="2.97149">
        <ele>1123.0855674811</ele>
        <time>2018-07-09T08:11:19Z</time>
      </trkpt>
      <trkpt lat="45.78477" lon="2.97167">
        <ele>1122.9624195716</ele>
        <time>2018-07-09T08:11:29Z</time>
      </trkpt>
      <trkpt lat="45.78478" lon="2.97179">
        <ele>1122.8519552426</ele>
        <time>2018-07-09T08:11:38Z</time>
      </trkpt>
      <trkpt lat="45.78483" lon="2.97188">
        <ele>1122.7206158274</ele>
        <time>2018-07-09T08:11:48Z</time>
      </trkpt>
      <trkpt lat="45.78495" lon="2.97192">
        <ele>1122.5874758108</ele>
        <time>2018-07-09T08:11:57Z</time>
      </trkpt>
      <trkpt lat="45.78501" lon="2.97195">
        <ele>1122.4522476554</ele>
        <time>2018-07-09T08:12:06Z</time>
      </trkpt>
      <trkpt lat="45.78503" lon="2.97197">
        <ele>1122.3269273378</ele>
        <time>2018-07-09T08:12:15Z</time>
      </trkpt>
      <trkpt lat="45.78513" lon="2.97194">
        <ele>1122.1941471313</ele>
        <time>2018-07-09T08:12:24Z</time>
      </trkpt>
      <trkpt lat="45.78516" lon="2.97196">
        <ele>1122.0686640712</ele>
        <time>2018-07-09T08:12:34Z</time>
      </trkpt>
      <trkpt lat="45.7852" lon="2.97205">
        <ele>1121.9344417315</ele>
        <time>2018-07-09T08:12:44Z</time>
      </trkpt>
      <trkpt lat="45.78525" lon="2.97205">
        <ele>1121.7624676523</ele>
        <time>2018-07-09T08:12:54Z</time>
      </trkpt>
      <trkpt lat="45.7853" lon="2.97213">
        <ele>1121.6067230355</ele>
        <time>2018-07-09T08:13:03Z</time>
      </trkpt>
      <trkpt lat="45.78534" lon="2.97218">
        <ele>1121.4646278364</ele>
        <time>2018-07-09T08:13:12Z</time>
      </trkpt>
      <trkpt lat="45.7854" lon="2.97209">
        <ele>1121.3034690178</ele>
        <time>2018-07-09T08:13:22Z</time>
      </trkpt>
      <trkpt lat="45.78544" lon="2.97212">
        <ele>1121.1095479159</ele>
        <time>2018-07-09T08:13:31Z</time>
      </trkpt>
      <trkpt lat="45.78547" lon="2.97217">
        <ele>1120.9312811093</ele>
        <time>2018-07-09T08:13:41Z</time>
      </trkpt>
      <trkpt lat="45.78554" lon="2.97235">
        <ele>1120.6930931361</ele>
        <time>2018-07-09T08:13:51Z</time>
      </trkpt>
      <trkpt lat="45.78559" lon="2.97244">
        <ele>1120.4029960047</ele>
        <time>2018-07-09T08:14:01Z</time>
      </trkpt>
      <trkpt lat="45.78562" lon="2.97251">
        <ele>1120.1776801079</ele>
        <time>2018-07-09T08:14:10Z</time>
      </trkpt>
      <trkpt lat="45.78567" lon="2.97263">
        <ele>1119.9370210933</ele>
        <time>2018-07-09T08:14:20Z</time>
      </trkpt>
      <trkpt lat="45.78566" lon="2.97275">
        <ele>1119.7141649082</ele>
        <time>2018-07-09T08:14:29Z</time>
      </trkpt>
      <trkpt lat="45.78568" lon="2.97286">
        <ele>1119.5035253486</ele>
        <time>2018-07-09T08:14:38Z</time>
      </trkpt>
      <trkpt lat="45.78562" lon="2.97297">
        <ele>1119.2489669534</ele>
        <time>2018-07-09T08:14:48Z</time>
      </trkpt>
      <trkpt lat="45.78552" lon="2.97309">
        <ele>1118.9394104905</ele>
        <time>2018-07-09T08:14:58Z</time>
      </trkpt>
      <trkpt lat="45.78545" lon="2.97322">
        <ele>1118.5964321756</ele>
        <time>2018-07-09T08:15:08Z</time>
      </trkpt>
      <trkpt lat="45.78543" lon="2.97327">
        <ele>1118.2673409796</ele>
        <time>2018-07-09T08:15:18Z</time>
      </trkpt>
      <trkpt lat="45.78537" lon="2.97342">
        <ele>1117.97759705</ele>
        <time>2018-07-09T08:15:28Z</time>
      </trkpt>
      <trkpt lat="45.78536" lon="2.97363">
        <ele>1117.4489136118</ele>
        <time>2018-07-09T08:15:38Z</time>
      </trkpt>
      <trkpt lat="45.78532" lon="2.97374">
        <ele>1116.7885291714</ele>
        <time>2018-07-09T08:15:47Z</time>
      </trkpt>
      <trkpt lat="45.78531" lon="2.97387">
        <ele>1116.1281218655</ele>
        <time>2018-07-09T08:15:56Z</time>
      </trkpt>
      <trkpt lat="45.78527" lon="2.97403">
        <ele>1115.2671587388</ele>
        <time>2018-07-09T08:16:06Z</time>
      </trkpt>
      <trkpt lat="45.78522" lon="2.9741">
        <ele>1114.4986213576</ele>
        <time>2018-07-09T08:16:16Z</time>
      </trkpt>
      <trkpt lat="45.78517" lon="2.97421">
        <ele>1113.7883857918</ele>
        <time>2018-07-09T08:16:25Z</time>
      </trkpt>
      <trkpt lat="45.78515" lon="2.97433">
        <ele>1112.9347785698</ele>
        <time>2018-07-09T08:16:35Z</time>
      </trkpt>
      <trkpt lat="45.78509" lon="2.97448">
        <ele>1112.213582835</ele>
        <time>2018-07-09T08:16:44Z</time>
      </trkpt>
      <trkpt lat="45.78509" lon="2.97453">
        <ele>1111.6533214647</ele>
        <time>2018-07-09T08:16:53Z</time>
      </trkpt>
      <trkpt lat="45.78508" lon="2.97459">
        <ele>1110.8102065463</ele>
        <time>2018-07-09T08:17:02Z</time>
      </trkpt>
      <trkpt lat="45.78504" lon="2.97475">
        <ele>1109.7556672057</ele>
        <time>2018-07-09T08:17:11Z</time>
      </trkpt>
      <trkpt lat="45.78497" lon="2.97487">
        <ele>1109.0085960788</ele>
        <time>2018-07-09T08:17:21Z</time>
      </trkpt>
      <trkpt lat="45.78495" lon="2.97491">
        <ele>1108.2583041529</ele>
        <time>2018-07-09T08:17:30Z</time>
      </trkpt>
      <trkpt lat="45.78494" lon="2.97496">
        <ele>1107.2515080871</ele>
        <time>2018-07-09T08:17:39Z</time>
      </trkpt>
      <trkpt lat="45.7849" lon="2.97505">
        <ele>1105.800055638</ele>
        <time>2018-07-09T08:17:48Z</time>
      </trkpt>
      <trkpt lat="45.78486" lon="2.97513">
        <ele>1104.4215203526</ele>
        <time>2018-07-09T08:17:57Z</time>
      </trkpt>
      <trkpt lat="45.78478" lon="2.97525">
        <ele>1103.1429932406</ele>
        <time>2018-07-09T08:18:07Z</time>
      </trkpt>
      <trkpt lat="45.78474" lon="2.97534">
        <ele>1101.8138277888</ele>
        <time>2018-07-09T08:18:16Z</time>
      </trkpt>
      <trkpt lat="45.78464" lon="2.97552">
        <ele>1099.9428205251</ele>
        <time>2018-07-09T08:18:25Z</time>
      </trkpt>
      <trkpt lat="45.78459" lon="2.97561">
        <ele>1097.8959347595</ele>
        <time>2018-07-09T08:18:34Z</time>
      </trkpt>
      <trkpt lat="45.78454" lon="2.97572">
        <ele>1095.6466695698</ele>
        <time>2018-07-09T08:18:43Z</time>
      </trkpt>
      <trkpt lat="45.78446" lon="2.97591">
        <ele>1092.838258022</ele>
        <time>2018-07-09T08:18:53Z</time>
      </trkpt>
      <trkpt lat="45.78438" lon="2.97603">
        <ele>1090.1054212016</ele>
        <time>2018-07-09T08:19:02Z</time>
      </trkpt>
      <trkpt lat="45.78434" lon="2.97611">
        <ele>1086.7510532733</ele>
        <time>2018-07-09T08:19:12Z</time>
      </trkpt>
      <trkpt lat="45.78431" lon="2.97616">
        <ele>1083.7039973615</ele>
        <time>2018-07-09T08:19:21Z</time>
      </trkpt>
      <trkpt lat="45.78426" lon="2.97632">
        <ele>1081.1992666072</ele>
        <time>2018-07-09T08:19:30Z</time>
      </trkpt>
      <trkpt lat="45.78421" lon="2.97638">
        <ele>1079.1095473455</ele>
        <time>2018-07-09T08:19:40Z</time>
      </trkpt>
      <trkpt lat="45.78408" lon="2.97651">
        <ele>1076.9974181192</ele>
        <time>2018-07-09T08:19:50Z</time>
      </trkpt>
      <trkpt lat="45.78404" lon="2.97667">
        <ele>1075.3415458785</ele>
        <time>2018-07-09T08:19:59Z</time>
      </trkpt>
      <trkpt lat="45.78402" lon="2.9768">
        <ele>1072.8774654436</ele>
        <time>2018-07-09T08:20:09Z</time>
      </trkpt>
      <trkpt lat="45.78389" lon="2.97694">
        <ele>1070.6883428381</ele>
        <time>2018-07-09T08:20:19Z</time>
      </trkpt>
      <trkpt lat="45.78381" lon="2.97713">
        <ele>1069.1337330108</ele>
        <time>2018-07-09T08:20:28Z</time>
      </trkpt>
      <trkpt lat="45.78377" lon="2.97723">
        <ele>1067.5421007335</ele>
        <time>2018-07-09T08:20:38Z</time>
      </trkpt>
      <trkpt lat="45.78373" lon="2.97732">
        <ele>1066.1005993301</ele>
        <time>2018-07-09T08:20:48Z</time>
      </trkpt>
      <trkpt lat="45.78358" lon="2.97749">
        <ele>1064.5190823907</ele>
        <time>2018-07-09T08:20:57Z</time>
      </trkpt>
      <trkpt lat="45.78348" lon="2.97764">
        <ele>1062.7488951019</ele>
        <time>2018-07-09T08:21:07Z</time>
      </trkpt>
      <trkpt lat="45.78344" lon="2.97774">
        <ele>1060.9357467642</ele>
        <time>2018-07-09T08:21:17Z</time>
      </trkpt>
      <trkpt lat="45.7834" lon="2.9778">
        <ele>1059.4479615847</ele>
        <time>2018-07-09T08:21:26Z</time>
      </trkpt>
      <trkpt lat="45.7833" lon="2.97789">
        <ele>1057.8205723599</ele>
        <time>2018-07-09T08:21:35Z</time>
      </trkpt>
      <trkpt lat="45.78322" lon="2.97797">
        <ele>1056.3887462395</ele>
        <time>2018-07-09T08:21:44Z</time>
      </trkpt>
      <trkpt lat="45.78312" lon="2.97805">
        <ele>1054.7467370431</ele>
        <time>2018-07-09T08:21:54Z</time>
      </trkpt>
      <trkpt lat="45.78305" lon="2.9781">
        <ele>1053.4558204585</ele>
        <time>2018-07-09T08:22:03Z</time>
      </trkpt>
      <trkpt lat="45.78296" lon="2.9782">
        <ele>1052.2200467415</ele>
        <time>2018-07-09T08:22:13Z</time>
      </trkpt>
      <trkpt lat="45.78294" lon="2.97819">
        <ele>1051.4249878638</ele>
        <time>2018-07-09T08:22:22Z</time>
      </trkpt>
      <trkpt lat="45.78292" lon="2.97824">
        <ele>1050.5744894229</ele>
        <time>2018-07-09T08:22:31Z</time>
      </trkpt>
      <trkpt lat="45.78285" lon="2.97825">
        <ele>1049.6797200416</ele>
        <time>2018-07-09T08:22:41Z</time>
      </trkpt>
      <trkpt lat="45.78261" lon="2.97844">
        <ele>1048.7103932531</ele>
        <time>2018-07-09T08:22:50Z</time>
      </trkpt>
      <trkpt lat="45.78252" lon="2.97851">
        <ele>1047.7310703299</ele>
        <time>2018-07-09T08:22:59Z</time>
      </trkpt>
      <trkpt lat="45.78244" lon="2.97863">
        <ele>1046.8472947126</ele>
        <time>2018-07-09T08:23:08Z</time>
      </trkpt>
      <trkpt lat="45.78238" lon="2.97871">
        <ele>1045.9511912647</ele>
        <time>2018-07-09T08:23:17Z</time>
      </trkpt>
      <trkpt lat="45.78236" lon="2.97872">
        <ele>1045.7536082859</ele>
        <time>2018-07-09T08:23:26Z</time>
      </trkpt>
      <trkpt lat="45.78236" lon="2.97873">
        <ele>1045.4868455928</ele>
        <time>2018-07-09T08:23:36Z</time>
      </trkpt>
      <trkpt lat="45.78236" lon="2.97873">
        <ele>1044.2887685766</ele>
        <time>2018-07-09T08:23:46Z</time>
      </trkpt>
      <trkpt lat="45.78226" lon="2.9788">
        <ele>1043.1418010046</ele>
        <time>2018-07-09T08:23:56Z</time>
      </trkpt>
      <trkpt lat="45.78224" lon="2.97889">
        <ele>1041.9475806028</ele>
        <time>2018-07-09T08:24:05Z</time>
      </trkpt>
      <trkpt lat="45.78214" lon="2.97894">
        <ele>1040.8962704728</ele>
        <time>2018-07-09T08:24:14Z</time>
      </trkpt>
      <trkpt lat="45.78204" lon="2.97894">
        <ele>1039.6738958312</ele>
        <time>2018-07-09T08:24:23Z</time>
      </trkpt>
      <trkpt lat="45.78204" lon="2.979">
        <ele>1038.7259315538</ele>
        <time>2018-07-09T08:24:32Z</time>
      </trkpt>
      <trkpt lat="45.78198" lon="2.97903">
        <ele>1036.8128090184</ele>
        <time>2018-07-09T08:24:42Z</time>
      </trkpt>
      <trkpt lat="45.78175" lon="2.979">
        <ele>1033.8635520471</ele>
        <time>2018-07-09T08:24:52Z</time>
      </trkpt>
      <trkpt lat="45.78173" lon="2.97913">
        <ele>1033.581227509</ele>
        <time>2018-07-09T08:25:01Z</time>
      </trkpt>
      <trkpt lat="45.78162" lon="2.97921">
        <ele>1033.1758769321</ele>
        <time>2018-07-09T08:25:11Z</time>
      </trkpt>
      <trkpt lat="45.78157" lon="2.97929">
        <ele>1032.6622312824</ele>
        <time>2018-07-09T08:25:20Z</time>
      </trkpt>
      <trkpt lat="45.7816" lon="2.97946">
        <ele>1031.8135822963</ele>
        <time>2018-07-09T08:25:30Z</time>
      </trkpt>
      <trkpt lat="45.78162" lon="2.97964">
        <ele>1030.8703231767</ele>
        <time>2018-07-09T08:25:39Z</time>
      </trkpt>
      <trkpt lat="45.78161" lon="2.97979">
        <ele>1029.6461439502</ele>
        <time>2018-07-09T08:25:48Z</time>
      </trkpt>
      <trkpt lat="45.78163" lon="2.97986">
        <ele>1028.2698390048</ele>
        <time>2018-07-09T08:25:57Z</time>
      </trkpt>
      <trkpt lat="45.78166" lon="2.97997">
        <ele>1026.8456764576</ele>
        <time>2018-07-09T08:26:07Z</time>
      </trkpt>
      <trkpt lat="45.78168" lon="2.98005">
        <ele>1025.5586987288</ele>
        <time>2018-07-09T08:26:16Z</time>
      </trkpt>
      <trkpt lat="45.7817" lon="2.98017">
        <ele>1024.2649134677</ele>
        <time>2018-07-09T08:26:26Z</time>
      </trkpt>
      <trkpt lat="45.78178" lon="2.98033">
        <ele>1023.2880746593</ele>
        <time>2018-07-09T08:26:35Z</time>
      </trkpt>
      <trkpt lat="45.78182" lon="2.9805">
        <ele>1022.1529717004</ele>
        <time>2018-07-09T08:26:45Z</time>
      </trkpt>
      <trkpt lat="45.78182" lon="2.98071">
        <ele>1021.1539489497</ele>
        <time>2018-07-09T08:26:54Z</time>
      </trkpt>
      <trkpt lat="45.78184" lon="2.98085">
        <ele>1020.1075003073</ele>
        <time>2018-07-09T08:27:04Z</time>
      </trkpt>
      <trkpt lat="45.78186" lon="2.98094">
        <ele>1019.2411814181</ele>
        <time>2018-07-09T08:27:13Z</time>
      </trkpt>
      <trkpt lat="45.78185" lon="2.98115">
        <ele>1018.2362191248</ele>
        <time>2018-07-09T08:27:23Z</time>
      </trkpt>
      <trkpt lat="45.78184" lon="2.98134">
        <ele>1017.084401754</ele>
        <time>2018-07-09T08:27:33Z</time>
      </trkpt>
      <trkpt lat="45.78183" lon="2.98149">
        <ele>1016.1347147138</ele>
        <time>2018-07-09T08:27:43Z</time>
      </trkpt>
      <trkpt lat="45.78179" lon="2.98166">
        <ele>1015.0946861959</ele>
        <time>2018-07-09T08:27:52Z</time>
      </trkpt>
      <trkpt lat="45.78177" lon="2.98182">
        <ele>1014.0504177592</ele>
        <time>2018-07-09T08:28:01Z</time>
      </trkpt>
      <trkpt lat="45.78172" lon="2.98197">
        <ele>1012.9666724585</ele>
        <time>2018-07-09T08:28:10Z</time>
      </trkpt>
      <trkpt lat="45.7817" lon="2.9821">
        <ele>1012.0998352379</ele>
        <time>2018-07-09T08:28:19Z</time>
      </trkpt>
      <trkpt lat="45.78164" lon="2.98229">
        <ele>1010.9383832455</ele>
        <time>2018-07-09T08:28:29Z</time>
      </trkpt>
      <trkpt lat="45.7816" lon="2.98241">
        <ele>1010.0226820385</ele>
        <time>2018-07-09T08:28:38Z</time>
      </trkpt>
      <trkpt lat="45.78155" lon="2.98255">
        <ele>1008.8729054024</ele>
        <time>2018-07-09T08:28:48Z</time>
      </trkpt>
      <trkpt lat="45.78155" lon="2.98269">
        <ele>1007.8379218129</ele>
        <time>2018-07-09T08:28:57Z</time>
      </trkpt>
      <trkpt lat="45.78152" lon="2.98286">
        <ele>1006.7103543238</ele>
        <time>2018-07-09T08:29:07Z</time>
      </trkpt>
      <trkpt lat="45.78149" lon="2.98299">
        <ele>1005.7195306464</ele>
        <time>2018-07-09T08:29:16Z</time>
      </trkpt>
      <trkpt lat="45.78147" lon="2.98325">
        <ele>1004.6490174805</ele>
        <time>2018-07-09T08:29:26Z</time>
      </trkpt>
      <trkpt lat="45.78145" lon="2.98342">
        <ele>1003.641040691</ele>
        <time>2018-07-09T08:29:35Z</time>
      </trkpt>
      <trkpt lat="45.78145" lon="2.98354">
        <ele>1002.6217955711</ele>
        <time>2018-07-09T08:29:44Z</time>
      </trkpt>
      <trkpt lat="45.78143" lon="2.98366">
        <ele>1001.6295709812</ele>
        <time>2018-07-09T08:29:53Z</time>
      </trkpt>
      <trkpt lat="45.7814" lon="2.98384">
        <ele>1000.5612016498</ele>
        <time>2018-07-09T08:30:03Z</time>
      </trkpt>
      <trkpt lat="45.78139" lon="2.98406">
        <ele>999.52546818797</ele>
        <time>2018-07-09T08:30:13Z</time>
      </trkpt>
      <trkpt lat="45.78139" lon="2.98421">
        <ele>998.6032482117</ele>
        <time>2018-07-09T08:30:22Z</time>
      </trkpt>
      <trkpt lat="45.78139" lon="2.98441">
        <ele>997.63497014966</ele>
        <time>2018-07-09T08:30:32Z</time>
      </trkpt>
      <trkpt lat="45.78138" lon="2.98458">
        <ele>996.75099925561</ele>
        <time>2018-07-09T08:30:41Z</time>
      </trkpt>
      <trkpt lat="45.78137" lon="2.98473">
        <ele>995.89456639548</ele>
        <time>2018-07-09T08:30:50Z</time>
      </trkpt>
      <trkpt lat="45.78136" lon="2.98486">
        <ele>995.04447316783</ele>
        <time>2018-07-09T08:30:59Z</time>
      </trkpt>
      <trkpt lat="45.78137" lon="2.98503">
        <ele>994.19057527735</ele>
        <time>2018-07-09T08:31:08Z</time>
      </trkpt>
      <trkpt lat="45.78138" lon="2.98521">
        <ele>993.27135581594</ele>
        <time>2018-07-09T08:31:18Z</time>
      </trkpt>
      <trkpt lat="45.78138" lon="2.98537">
        <ele>992.44389803146</ele>
        <time>2018-07-09T08:31:27Z</time>
      </trkpt>
      <trkpt lat="45.78138" lon="2.98555">
        <ele>991.46648316298</ele>
        <time>2018-07-09T08:31:37Z</time>
      </trkpt>
      <trkpt lat="45.78136" lon="2.98562">
        <ele>990.45043525709</ele>
        <time>2018-07-09T08:31:47Z</time>
      </trkpt>
      <trkpt lat="45.78136" lon="2.98575">
        <ele>989.5237092725</ele>
        <time>2018-07-09T08:31:57Z</time>
      </trkpt>
      <trkpt lat="45.78134" lon="2.98591">
        <ele>988.73791795576</ele>
        <time>2018-07-09T08:32:06Z</time>
      </trkpt>
      <trkpt lat="45.78133" lon="2.98607">
        <ele>987.93000614459</ele>
        <time>2018-07-09T08:32:15Z</time>
      </trkpt>
      <trkpt lat="45.78131" lon="2.98607">
        <ele>987.25454281407</ele>
        <time>2018-07-09T08:32:25Z</time>
      </trkpt>
      <trkpt lat="45.78132" lon="2.98602">
        <ele>985.43451944709</ele>
        <time>2018-07-09T08:32:35Z</time>
      </trkpt>
      <trkpt lat="45.78134" lon="2.9861">
        <ele>984.73981206568</ele>
        <time>2018-07-09T08:32:44Z</time>
      </trkpt>
      <trkpt lat="45.78133" lon="2.9861">
        <ele>984.64489181698</ele>
        <time>2018-07-09T08:32:53Z</time>
      </trkpt>
      <trkpt lat="45.7813" lon="2.98609">
        <ele>984.29395112358</ele>
        <time>2018-07-09T08:33:02Z</time>
      </trkpt>
      <trkpt lat="45.78131" lon="2.98599">
        <ele>983.79811523313</ele>
        <time>2018-07-09T08:33:11Z</time>
      </trkpt>
      <trkpt lat="45.78131" lon="2.98601">
        <ele>983.29258788696</ele>
        <time>2018-07-09T08:33:20Z</time>
      </trkpt>
      <trkpt lat="45.7813" lon="2.98601">
        <ele>982.54158888345</ele>
        <time>2018-07-09T08:33:31Z</time>
      </trkpt>
      <trkpt lat="45.78124" lon="2.98592">
        <ele>980.9051694756</ele>
        <time>2018-07-09T08:33:41Z</time>
      </trkpt>
      <trkpt lat="45.78113" lon="2.98595">
        <ele>979.19552806402</ele>
        <time>2018-07-09T08:33:50Z</time>
      </trkpt>
      <trkpt lat="45.781" lon="2.98603">
        <ele>977.45342461011</ele>
        <time>2018-07-09T08:34:00Z</time>
      </trkpt>
      <trkpt lat="45.78086" lon="2.98608">
        <ele>976.0006747742</ele>
        <time>2018-07-09T08:34:09Z</time>
      </trkpt>
      <trkpt lat="45.78072" lon="2.98608">
        <ele>974.74036915126</ele>
        <time>2018-07-09T08:34:18Z</time>
      </trkpt>
      <trkpt lat="45.78064" lon="2.98605">
        <ele>973.64968460769</ele>
        <time>2018-07-09T08:34:27Z</time>
      </trkpt>
      <trkpt lat="45.78051" lon="2.98608">
        <ele>972.64736938099</ele>
        <time>2018-07-09T08:34:36Z</time>
      </trkpt>
      <trkpt lat="45.7804" lon="2.98609">
        <ele>971.72572026141</ele>
        <time>2018-07-09T08:34:45Z</time>
      </trkpt>
      <trkpt lat="45.78026" lon="2.98601">
        <ele>970.79217044173</ele>
        <time>2018-07-09T08:34:55Z</time>
      </trkpt>
      <trkpt lat="45.78018" lon="2.98595">
        <ele>969.9838028645</ele>
        <time>2018-07-09T08:35:05Z</time>
      </trkpt>
      <trkpt lat="45.77999" lon="2.98587">
        <ele>969.21193243592</ele>
        <time>2018-07-09T08:35:14Z</time>
      </trkpt>
      <trkpt lat="45.77992" lon="2.98586">
        <ele>968.48452750185</ele>
        <time>2018-07-09T08:35:23Z</time>
      </trkpt>
      <trkpt lat="45.77982" lon="2.98581">
        <ele>967.75667260142</ele>
        <time>2018-07-09T08:35:33Z</time>
      </trkpt>
      <trkpt lat="45.77971" lon="2.98577">
        <ele>967.11936565729</ele>
        <time>2018-07-09T08:35:42Z</time>
      </trkpt>
      <trkpt lat="45.77958" lon="2.98578">
        <ele>966.4826389906</ele>
        <time>2018-07-09T08:35:51Z</time>
      </trkpt>
      <trkpt lat="45.77943" lon="2.98576">
        <ele>965.85843491754</ele>
        <time>2018-07-09T08:36:00Z</time>
      </trkpt>
      <trkpt lat="45.77933" lon="2.98572">
        <ele>965.2388343591</ele>
        <time>2018-07-09T08:36:09Z</time>
      </trkpt>
      <trkpt lat="45.77924" lon="2.98568">
        <ele>964.6687088556</ele>
        <time>2018-07-09T08:36:18Z</time>
      </trkpt>
      <trkpt lat="45.77913" lon="2.98559">
        <ele>964.05397968469</ele>
        <time>2018-07-09T08:36:28Z</time>
      </trkpt>
      <trkpt lat="45.77899" lon="2.98549">
        <ele>963.50550171463</ele>
        <time>2018-07-09T08:36:37Z</time>
      </trkpt>
      <trkpt lat="45.77889" lon="2.98542">
        <ele>962.96697892127</ele>
        <time>2018-07-09T08:36:46Z</time>
      </trkpt>
      <trkpt lat="45.77881" lon="2.98538">
        <ele>962.46451839516</ele>
        <time>2018-07-09T08:36:55Z</time>
      </trkpt>
      <trkpt lat="45.77868" lon="2.98526">
        <ele>961.85765752809</ele>
        <time>2018-07-09T08:37:05Z</time>
      </trkpt>
      <trkpt lat="45.77861" lon="2.98523">
        <ele>961.37729314896</ele>
        <time>2018-07-09T08:37:14Z</time>
      </trkpt>
      <trkpt lat="45.7785" lon="2.98513">
        <ele>960.90213686359</ele>
        <time>2018-07-09T08:37:24Z</time>
      </trkpt>
      <trkpt lat="45.77838" lon="2.98502">
        <ele>960.44614491334</ele>
        <time>2018-07-09T08:37:34Z</time>
      </trkpt>
      <trkpt lat="45.77824" lon="2.98492">
        <ele>960.0398576812</ele>
        <time>2018-07-09T08:37:44Z</time>
      </trkpt>
      <trkpt lat="45.77813" lon="2.98491">
        <ele>959.7216394723</ele>
        <time>2018-07-09T08:37:53Z</time>
      </trkpt>
      <trkpt lat="45.778" lon="2.98488">
        <ele>959.42347247581</ele>
        <time>2018-07-09T08:38:02Z</time>
      </trkpt>
      <trkpt lat="45.77787" lon="2.9848">
        <ele>959.11512878177</ele>
        <time>2018-07-09T08:38:11Z</time>
      </trkpt>
      <trkpt lat="45.77777" lon="2.9847">
        <ele>958.78794958028</ele>
        <time>2018-07-09T08:38:21Z</time>
      </trkpt>
      <trkpt lat="45.77767" lon="2.98463">
        <ele>958.4982602726</ele>
        <time>2018-07-09T08:38:30Z</time>
      </trkpt>
      <trkpt lat="45.77758" lon="2.98455">
        <ele>958.14651368045</ele>
        <time>2018-07-09T08:38:40Z</time>
      </trkpt>
      <trkpt lat="45.77744" lon="2.98444">
        <ele>957.7673895887</ele>
        <time>2018-07-09T08:38:50Z</time>
      </trkpt>
      <trkpt lat="45.77734" lon="2.98438">
        <ele>957.37051840687</ele>
        <time>2018-07-09T08:39:00Z</time>
      </trkpt>
      <trkpt lat="45.77716" lon="2.98436">
        <ele>956.99627712561</ele>
        <time>2018-07-09T08:39:09Z</time>
      </trkpt>
      <trkpt lat="45.77706" lon="2.98428">
        <ele>956.61130651851</ele>
        <time>2018-07-09T08:39:19Z</time>
      </trkpt>
      <trkpt lat="45.77694" lon="2.98425">
        <ele>956.27752460619</ele>
        <time>2018-07-09T08:39:28Z</time>
      </trkpt>
      <trkpt lat="45.77679" lon="2.98422">
        <ele>955.88989413127</ele>
        <time>2018-07-09T08:39:38Z</time>
      </trkpt>
      <trkpt lat="45.77666" lon="2.98419">
        <ele>955.5102438464</ele>
        <time>2018-07-09T08:39:48Z</time>
      </trkpt>
      <trkpt lat="45.77655" lon="2.98415">
        <ele>955.18064186336</ele>
        <time>2018-07-09T08:39:57Z</time>
      </trkpt>
      <trkpt lat="45.77644" lon="2.9841">
        <ele>954.84596498618</ele>
        <time>2018-07-09T08:40:06Z</time>
      </trkpt>
      <trkpt lat="45.77634" lon="2.98403">
        <ele>954.51728219935</ele>
        <time>2018-07-09T08:40:15Z</time>
      </trkpt>
      <trkpt lat="45.77626" lon="2.98392">
        <ele>954.15723391738</ele>
        <time>2018-07-09T08:40:25Z</time>
      </trkpt>
      <trkpt lat="45.77619" lon="2.98383">
        <ele>953.8188146931</ele>
        <time>2018-07-09T08:40:34Z</time>
      </trkpt>
      <trkpt lat="45.77614" lon="2.98368">
        <ele>953.49972793596</ele>
        <time>2018-07-09T08:40:43Z</time>
      </trkpt>
      <trkpt lat="45.77604" lon="2.98358">
        <ele>953.15417709328</ele>
        <time>2018-07-09T08:40:53Z</time>
      </trkpt>
      <trkpt lat="45.77594" lon="2.98345">
        <ele>952.86958101333</ele>
        <time>2018-07-09T08:41:02Z</time>
      </trkpt>
      <trkpt lat="45.77588" lon="2.98333">
        <ele>952.62216292115</ele>
        <time>2018-07-09T08:41:12Z</time>
      </trkpt>
      <trkpt lat="45.77582" lon="2.98326">
        <ele>952.39401038963</ele>
        <time>2018-07-09T08:41:21Z</time>
      </trkpt>
      <trkpt lat="45.77581" lon="2.98327">
        <ele>952.30537285363</ele>
        <time>2018-07-09T08:41:31Z</time>
      </trkpt>
      <trkpt lat="45.77581" lon="2.98328">
        <ele>952.26351224541</ele>
        <time>2018-07-09T08:41:40Z</time>
      </trkpt>
      <trkpt lat="45.7758" lon="2.9833">
        <ele>952.24118321482</ele>
        <time>2018-07-09T08:41:49Z</time>
      </trkpt>
      <trkpt lat="45.77582" lon="2.98335">
        <ele>952.07409683349</ele>
        <time>2018-07-09T08:41:59Z</time>
      </trkpt>
      <trkpt lat="45.77582" lon="2.98339">
        <ele>951.85982168214</ele>
        <time>2018-07-09T08:42:08Z</time>
      </trkpt>
      <trkpt lat="45.77583" lon="2.98341">
        <ele>951.65938594764</ele>
        <time>2018-07-09T08:42:18Z</time>
      </trkpt>
      <trkpt lat="45.77583" lon="2.98342">
        <ele>951.44621870088</ele>
        <time>2018-07-09T08:42:29Z</time>
      </trkpt>
      <trkpt lat="45.77583" lon="2.98345">
        <ele>950.62303946934</ele>
        <time>2018-07-09T08:42:37Z</time>
      </trkpt>
      <trkpt lat="45.77578" lon="2.9835">
        <ele>950.27362439823</ele>
        <time>2018-07-09T08:42:46Z</time>
      </trkpt>
      <trkpt lat="45.77571" lon="2.98356">
        <ele>950.12962706517</ele>
        <time>2018-07-09T08:42:53Z</time>
      </trkpt>
      <trkpt lat="45.77572" lon="2.98352">
        <ele>949.87298849446</ele>
        <time>2018-07-09T08:43:03Z</time>
      </trkpt>
      <trkpt lat="45.77572" lon="2.98351">
        <ele>949.81995248113</ele>
        <time>2018-07-09T08:43:15Z</time>
      </trkpt>
      <trkpt lat="45.77571" lon="2.9835">
        <ele>949.79168193382</ele>
        <time>2018-07-09T08:43:33Z</time>
      </trkpt>
      <trkpt lat="45.77572" lon="2.98349">
        <ele>949.74679534447</ele>
        <time>2018-07-09T08:43:46Z</time>
      </trkpt>
      <trkpt lat="45.77573" lon="2.98349">
        <ele>949.62414526384</ele>
        <time>2018-07-09T08:44:25Z</time>
      </trkpt>
      <trkpt lat="45.77573" lon="2.9835">
        <ele>949.57173228806</ele>
        <time>2018-07-09T08:44:44Z</time>
      </trkpt>
      <trkpt lat="45.77572" lon="2.98356">
        <ele>949.35528642794</ele>
        <time>2018-07-09T08:44:53Z</time>
      </trkpt>
      <trkpt lat="45.77572" lon="2.98354">
        <ele>949.26210620828</ele>
        <time>2018-07-09T08:45:02Z</time>
      </trkpt>
      <trkpt lat="45.77573" lon="2.98355">
        <ele>949.15126421724</ele>
        <time>2018-07-09T08:45:17Z</time>
      </trkpt>
      <trkpt lat="45.77571" lon="2.98355">
        <ele>948.7870118885</ele>
        <time>2018-07-09T08:45:27Z</time>
      </trkpt>
      <trkpt lat="45.77567" lon="2.9835">
        <ele>948.65423712594</ele>
        <time>2018-07-09T08:45:36Z</time>
      </trkpt>
      <trkpt lat="45.77568" lon="2.98349">
        <ele>948.52922969958</ele>
        <time>2018-07-09T08:45:46Z</time>
      </trkpt>
      <trkpt lat="45.77567" lon="2.98343">
        <ele>948.44147878262</ele>
        <time>2018-07-09T08:45:56Z</time>
      </trkpt>
      <trkpt lat="45.77568" lon="2.98344">
        <ele>948.42929122645</ele>
        <time>2018-07-09T08:46:06Z</time>
      </trkpt>
      <trkpt lat="45.77569" lon="2.98344">
        <ele>948.41920719816</ele>
        <time>2018-07-09T08:46:16Z</time>
      </trkpt>
      <trkpt lat="45.7757" lon="2.98344">
        <ele>948.3880004074</ele>
        <time>2018-07-09T08:46:26Z</time>
      </trkpt>
      <trkpt lat="45.7757" lon="2.98343">
        <ele>948.37069776483</ele>
        <time>2018-07-09T08:46:37Z</time>
      </trkpt>
      <trkpt lat="45.7757" lon="2.98342">
        <ele>948.28682316014</ele>
        <time>2018-07-09T08:46:51Z</time>
      </trkpt>
      <trkpt lat="45.7757" lon="2.98341">
        <ele>948.25730715883</ele>
        <time>2018-07-09T08:47:01Z</time>
      </trkpt>
      <trkpt lat="45.77571" lon="2.98339">
        <ele>948.19842464689</ele>
        <time>2018-07-09T08:47:11Z</time>
      </trkpt>
      <trkpt lat="45.7757" lon="2.9834">
        <ele>947.94328057397</ele>
        <time>2018-07-09T08:49:06Z</time>
      </trkpt>
      <trkpt lat="45.7757" lon="2.98341">
        <ele>947.93268729993</ele>
        <time>2018-07-09T08:49:16Z</time>
      </trkpt>
      <trkpt lat="45.77571" lon="2.98342">
        <ele>947.92086909109</ele>
        <time>2018-07-09T08:49:26Z</time>
      </trkpt>
      <trkpt lat="45.77571" lon="2.98344">
        <ele>947.83849319499</ele>
        <time>2018-07-09T08:49:36Z</time>
      </trkpt>
      <trkpt lat="45.77572" lon="2.98344">
        <ele>947.7063681873</ele>
        <time>2018-07-09T08:49:46Z</time>
      </trkpt>
      <trkpt lat="45.77572" lon="2.98346">
        <ele>947.63943968371</ele>
        <time>2018-07-09T08:49:56Z</time>
      </trkpt>
      <trkpt lat="45.77573" lon="2.98349">
        <ele>947.57349439169</ele>
        <time>2018-07-09T08:50:05Z</time>
      </trkpt>
      <trkpt lat="45.77573" lon="2.9835">
        <ele>947.41119960725</ele>
        <time>2018-07-09T08:50:18Z</time>
      </trkpt>
      <trkpt lat="45.77575" lon="2.98354">
        <ele>947.33797479735</ele>
        <time>2018-07-09T08:50:27Z</time>
      </trkpt>
      <trkpt lat="45.77573" lon="2.98351">
        <ele>947.29864179242</ele>
        <time>2018-07-09T08:50:37Z</time>
      </trkpt>
      <trkpt lat="45.77572" lon="2.98349">
        <ele>947.2468478831</ele>
        <time>2018-07-09T08:50:47Z</time>
      </trkpt>
      <trkpt lat="45.7757" lon="2.98349">
        <ele>947.15119658762</ele>
        <time>2018-07-09T08:50:56Z</time>
      </trkpt>
      <trkpt lat="45.7756" lon="2.98348">
        <ele>946.91681687778</ele>
        <time>2018-07-09T08:51:06Z</time>
      </trkpt>
      <trkpt lat="45.77547" lon="2.9835">
        <ele>946.73745448704</ele>
        <time>2018-07-09T08:51:15Z</time>
      </trkpt>
      <trkpt lat="45.77539" lon="2.98344">
        <ele>946.57728742348</ele>
        <time>2018-07-09T08:51:25Z</time>
      </trkpt>
      <trkpt lat="45.77527" lon="2.98329">
        <ele>946.43670898393</ele>
        <time>2018-07-09T08:51:35Z</time>
      </trkpt>
      <trkpt lat="45.77519" lon="2.98322">
        <ele>946.29356258187</ele>
        <time>2018-07-09T08:51:45Z</time>
      </trkpt>
      <trkpt lat="45.7751" lon="2.98316">
        <ele>946.14557957263</ele>
        <time>2018-07-09T08:51:54Z</time>
      </trkpt>
      <trkpt lat="45.77502" lon="2.98308">
        <ele>945.97313878792</ele>
        <time>2018-07-09T08:52:03Z</time>
      </trkpt>
      <trkpt lat="45.77494" lon="2.983">
        <ele>945.78031338611</ele>
        <time>2018-07-09T08:52:13Z</time>
      </trkpt>
      <trkpt lat="45.77485" lon="2.98293">
        <ele>945.59025613629</ele>
        <time>2018-07-09T08:52:23Z</time>
      </trkpt>
      <trkpt lat="45.77471" lon="2.98285">
        <ele>945.41379706993</ele>
        <time>2018-07-09T08:52:32Z</time>
      </trkpt>
      <trkpt lat="45.77464" lon="2.98286">
        <ele>945.31096188529</ele>
        <time>2018-07-09T08:52:41Z</time>
      </trkpt>
      <trkpt lat="45.77464" lon="2.98286">
        <ele>945.28149636233</ele>
        <time>2018-07-09T08:52:50Z</time>
      </trkpt>
      <trkpt lat="45.77463" lon="2.98288">
        <ele>945.24027297125</ele>
        <time>2018-07-09T08:53:00Z</time>
      </trkpt>
      <trkpt lat="45.77462" lon="2.98289">
        <ele>945.15773626478</ele>
        <time>2018-07-09T08:53:09Z</time>
      </trkpt>
      <trkpt lat="45.77455" lon="2.98291">
        <ele>944.77396019775</ele>
        <time>2018-07-09T08:53:18Z</time>
      </trkpt>
      <trkpt lat="45.77444" lon="2.98287">
        <ele>944.43463223678</ele>
        <time>2018-07-09T08:53:28Z</time>
      </trkpt>
      <trkpt lat="45.77433" lon="2.98283">
        <ele>944.14244823716</ele>
        <time>2018-07-09T08:53:37Z</time>
      </trkpt>
      <trkpt lat="45.77423" lon="2.98276">
        <ele>943.8714123215</ele>
        <time>2018-07-09T08:53:46Z</time>
      </trkpt>
      <trkpt lat="45.77416" lon="2.98273">
        <ele>943.62363212318</ele>
        <time>2018-07-09T08:53:55Z</time>
      </trkpt>
      <trkpt lat="45.77405" lon="2.98263">
        <ele>943.41197883905</ele>
        <time>2018-07-09T08:54:04Z</time>
      </trkpt>
      <trkpt lat="45.77397" lon="2.98255">
        <ele>943.16853997356</ele>
        <time>2018-07-09T08:54:14Z</time>
      </trkpt>
      <trkpt lat="45.77389" lon="2.98248">
        <ele>942.96701031745</ele>
        <time>2018-07-09T08:54:23Z</time>
      </trkpt>
      <trkpt lat="45.7738" lon="2.9824">
        <ele>942.74258978109</ele>
        <time>2018-07-09T08:54:33Z</time>
      </trkpt>
      <trkpt lat="45.77374" lon="2.98236">
        <ele>942.51368330801</ele>
        <time>2018-07-09T08:54:42Z</time>
      </trkpt>
      <trkpt lat="45.77353" lon="2.98221">
        <ele>942.25773093908</ele>
        <time>2018-07-09T08:54:52Z</time>
      </trkpt>
      <trkpt lat="45.77339" lon="2.98213">
        <ele>942.02397411211</ele>
        <time>2018-07-09T08:55:01Z</time>
      </trkpt>
      <trkpt lat="45.7733" lon="2.98204">
        <ele>941.80193095624</ele>
        <time>2018-07-09T08:55:10Z</time>
      </trkpt>
      <trkpt lat="45.77321" lon="2.98191">
        <ele>941.57627356392</ele>
        <time>2018-07-09T08:55:20Z</time>
      </trkpt>
      <trkpt lat="45.77314" lon="2.98188">
        <ele>941.39702547134</ele>
        <time>2018-07-09T08:55:29Z</time>
      </trkpt>
      <trkpt lat="45.77301" lon="2.98181">
        <ele>941.19843097893</ele>
        <time>2018-07-09T08:55:39Z</time>
      </trkpt>
      <trkpt lat="45.7729" lon="2.98173">
        <ele>941.02100521391</ele>
        <time>2018-07-09T08:55:48Z</time>
      </trkpt>
      <trkpt lat="45.77279" lon="2.98165">
        <ele>940.84069571104</ele>
        <time>2018-07-09T08:55:58Z</time>
      </trkpt>
      <trkpt lat="45.77266" lon="2.98155">
        <ele>940.66082352161</ele>
        <time>2018-07-09T08:56:08Z</time>
      </trkpt>
      <trkpt lat="45.77258" lon="2.98147">
        <ele>940.52272206173</ele>
        <time>2018-07-09T08:56:17Z</time>
      </trkpt>
      <trkpt lat="45.77246" lon="2.98133">
        <ele>940.39822352513</ele>
        <time>2018-07-09T08:56:27Z</time>
      </trkpt>
      <trkpt lat="45.7724" lon="2.98128">
        <ele>940.30102675406</ele>
        <time>2018-07-09T08:56:36Z</time>
      </trkpt>
      <trkpt lat="45.77234" lon="2.98123">
        <ele>940.23637416889</ele>
        <time>2018-07-09T08:56:45Z</time>
      </trkpt>
      <trkpt lat="45.7723" lon="2.9812">
        <ele>940.18106811022</ele>
        <time>2018-07-09T08:56:55Z</time>
      </trkpt>
      <trkpt lat="45.77221" lon="2.98109">
        <ele>940.14928412906</ele>
        <time>2018-07-09T08:57:04Z</time>
      </trkpt>
      <trkpt lat="45.77203" lon="2.981">
        <ele>940.11802010224</ele>
        <time>2018-07-09T08:57:14Z</time>
      </trkpt>
      <trkpt lat="45.77184" lon="2.98105">
        <ele>940.09129808861</ele>
        <time>2018-07-09T08:57:24Z</time>
      </trkpt>
      <trkpt lat="45.77172" lon="2.98102">
        <ele>940.06890484298</ele>
        <time>2018-07-09T08:57:34Z</time>
      </trkpt>
      <trkpt lat="45.7716" lon="2.98095">
        <ele>940.04586708168</ele>
        <time>2018-07-09T08:57:43Z</time>
      </trkpt>
      <trkpt lat="45.77149" lon="2.9809">
        <ele>939.99959751069</ele>
        <time>2018-07-09T08:57:53Z</time>
      </trkpt>
      <trkpt lat="45.77133" lon="2.98083">
        <ele>939.99148996281</ele>
        <time>2018-07-09T08:58:02Z</time>
      </trkpt>
      <trkpt lat="45.77123" lon="2.98076">
        <ele>939.99137782973</ele>
        <time>2018-07-09T08:58:11Z</time>
      </trkpt>
      <trkpt lat="45.77117" lon="2.98066">
        <ele>940.00714017568</ele>
        <time>2018-07-09T08:58:20Z</time>
      </trkpt>
      <trkpt lat="45.77116" lon="2.98052">
        <ele>940.01680207082</ele>
        <time>2018-07-09T08:58:29Z</time>
      </trkpt>
      <trkpt lat="45.77105" lon="2.9805">
        <ele>940.05164868945</ele>
        <time>2018-07-09T08:58:38Z</time>
      </trkpt>
      <trkpt lat="45.77097" lon="2.98041">
        <ele>940.11050800468</ele>
        <time>2018-07-09T08:58:47Z</time>
      </trkpt>
      <trkpt lat="45.77094" lon="2.98032">
        <ele>940.14964858028</ele>
        <time>2018-07-09T08:58:56Z</time>
      </trkpt>
      <trkpt lat="45.77084" lon="2.9803">
        <ele>940.15305704543</ele>
        <time>2018-07-09T08:59:05Z</time>
      </trkpt>
      <trkpt lat="45.77074" lon="2.98019">
        <ele>940.10955487695</ele>
        <time>2018-07-09T08:59:14Z</time>
      </trkpt>
      <trkpt lat="45.77055" lon="2.9801">
        <ele>940.03582422051</ele>
        <time>2018-07-09T08:59:23Z</time>
      </trkpt>
      <trkpt lat="45.77037" lon="2.98">
        <ele>939.94453662725</ele>
        <time>2018-07-09T08:59:33Z</time>
      </trkpt>
      <trkpt lat="45.77022" lon="2.97996">
        <ele>939.88370578956</ele>
        <time>2018-07-09T08:59:43Z</time>
      </trkpt>
      <trkpt lat="45.77011" lon="2.97991">
        <ele>939.82606620527</ele>
        <time>2018-07-09T08:59:52Z</time>
      </trkpt>
      <trkpt lat="45.76996" lon="2.97978">
        <ele>939.75454342382</ele>
        <time>2018-07-09T09:00:02Z</time>
      </trkpt>
      <trkpt lat="45.76984" lon="2.97967">
        <ele>939.68354725895</ele>
        <time>2018-07-09T09:00:12Z</time>
      </trkpt>
      <trkpt lat="45.76971" lon="2.97961">
        <ele>939.62217658307</ele>
        <time>2018-07-09T09:00:21Z</time>
      </trkpt>
      <trkpt lat="45.76955" lon="2.97958">
        <ele>939.56509039897</ele>
        <time>2018-07-09T09:00:31Z</time>
      </trkpt>
      <trkpt lat="45.76935" lon="2.97954">
        <ele>939.52410409876</ele>
        <time>2018-07-09T09:00:41Z</time>
      </trkpt>
      <trkpt lat="45.76922" lon="2.97952">
        <ele>939.51218634601</ele>
        <time>2018-07-09T09:00:50Z</time>
      </trkpt>
      <trkpt lat="45.76909" lon="2.9795">
        <ele>939.51755426421</ele>
        <time>2018-07-09T09:00:59Z</time>
      </trkpt>
      <trkpt lat="45.76898" lon="2.97947">
        <ele>939.52001607405</ele>
        <time>2018-07-09T09:01:09Z</time>
      </trkpt>
      <trkpt lat="45.76878" lon="2.97943">
        <ele>939.50730858174</ele>
        <time>2018-07-09T09:01:18Z</time>
      </trkpt>
      <trkpt lat="45.76868" lon="2.97938">
        <ele>939.49952017643</ele>
        <time>2018-07-09T09:01:27Z</time>
      </trkpt>
      <trkpt lat="45.76855" lon="2.97929">
        <ele>939.50803910987</ele>
        <time>2018-07-09T09:01:36Z</time>
      </trkpt>
      <trkpt lat="45.76838" lon="2.97913">
        <ele>939.5213209514</ele>
        <time>2018-07-09T09:01:45Z</time>
      </trkpt>
      <trkpt lat="45.76827" lon="2.97906">
        <ele>939.52878823946</ele>
        <time>2018-07-09T09:01:54Z</time>
      </trkpt>
      <trkpt lat="45.76813" lon="2.97902">
        <ele>939.4977784171</ele>
        <time>2018-07-09T09:02:03Z</time>
      </trkpt>
      <trkpt lat="45.76791" lon="2.9789">
        <ele>939.45518564126</ele>
        <time>2018-07-09T09:02:12Z</time>
      </trkpt>
      <trkpt lat="45.76781" lon="2.97882">
        <ele>939.41457483325</ele>
        <time>2018-07-09T09:02:21Z</time>
      </trkpt>
      <trkpt lat="45.76772" lon="2.97883">
        <ele>939.37920574553</ele>
        <time>2018-07-09T09:02:30Z</time>
      </trkpt>
      <trkpt lat="45.76758" lon="2.97879">
        <ele>939.37864312121</ele>
        <time>2018-07-09T09:02:39Z</time>
      </trkpt>
      <trkpt lat="45.76739" lon="2.9787">
        <ele>939.37246491332</ele>
        <time>2018-07-09T09:02:49Z</time>
      </trkpt>
      <trkpt lat="45.76723" lon="2.97863">
        <ele>939.35866856371</ele>
        <time>2018-07-09T09:02:59Z</time>
      </trkpt>
      <trkpt lat="45.76702" lon="2.97858">
        <ele>939.34349642985</ele>
        <time>2018-07-09T09:03:08Z</time>
      </trkpt>
      <trkpt lat="45.76682" lon="2.97857">
        <ele>939.31682262079</ele>
        <time>2018-07-09T09:03:17Z</time>
      </trkpt>
      <trkpt lat="45.76663" lon="2.9786">
        <ele>939.22384711815</ele>
        <time>2018-07-09T09:03:27Z</time>
      </trkpt>
      <trkpt lat="45.76652" lon="2.97877">
        <ele>939.04533932495</ele>
        <time>2018-07-09T09:03:36Z</time>
      </trkpt>
      <trkpt lat="45.76646" lon="2.9788">
        <ele>938.87944580082</ele>
        <time>2018-07-09T09:03:46Z</time>
      </trkpt>
      <trkpt lat="45.7664" lon="2.9788">
        <ele>938.71009676431</ele>
        <time>2018-07-09T09:03:55Z</time>
      </trkpt>
      <trkpt lat="45.76623" lon="2.97875">
        <ele>938.45081136192</ele>
        <time>2018-07-09T09:04:04Z</time>
      </trkpt>
      <trkpt lat="45.76607" lon="2.97876">
        <ele>938.20497475042</ele>
        <time>2018-07-09T09:04:13Z</time>
      </trkpt>
      <trkpt lat="45.76588" lon="2.97877">
        <ele>937.97146674533</ele>
        <time>2018-07-09T09:04:22Z</time>
      </trkpt>
      <trkpt lat="45.76573" lon="2.97879">
        <ele>937.70498068216</ele>
        <time>2018-07-09T09:04:31Z</time>
      </trkpt>
      <trkpt lat="45.76558" lon="2.97869">
        <ele>937.42135400335</ele>
        <time>2018-07-09T09:04:41Z</time>
      </trkpt>
      <trkpt lat="45.76535" lon="2.97851">
        <ele>937.16007618847</ele>
        <time>2018-07-09T09:04:51Z</time>
      </trkpt>
      <trkpt lat="45.7652" lon="2.97841">
        <ele>936.96196649119</ele>
        <time>2018-07-09T09:05:00Z</time>
      </trkpt>
      <trkpt lat="45.7651" lon="2.97829">
        <ele>936.78356791772</ele>
        <time>2018-07-09T09:05:10Z</time>
      </trkpt>
      <trkpt lat="45.765" lon="2.97822">
        <ele>936.63989935993</ele>
        <time>2018-07-09T09:05:19Z</time>
      </trkpt>
      <trkpt lat="45.76482" lon="2.97805">
        <ele>936.48428857223</ele>
        <time>2018-07-09T09:05:28Z</time>
      </trkpt>
      <trkpt lat="45.76464" lon="2.97791">
        <ele>936.32798461195</ele>
        <time>2018-07-09T09:05:37Z</time>
      </trkpt>
      <trkpt lat="45.76449" lon="2.97775">
        <ele>936.17318917083</ele>
        <time>2018-07-09T09:05:47Z</time>
      </trkpt>
      <trkpt lat="45.76432" lon="2.97764">
        <ele>936.09765136757</ele>
        <time>2018-07-09T09:05:56Z</time>
      </trkpt>
      <trkpt lat="45.7642" lon="2.9775">
        <ele>936.06782960015</ele>
        <time>2018-07-09T09:06:05Z</time>
      </trkpt>
      <trkpt lat="45.76401" lon="2.97742">
        <ele>936.07427494318</ele>
        <time>2018-07-09T09:06:15Z</time>
      </trkpt>
      <trkpt lat="45.76388" lon="2.97728">
        <ele>936.12531358707</ele>
        <time>2018-07-09T09:06:25Z</time>
      </trkpt>
      <trkpt lat="45.76373" lon="2.97715">
        <ele>936.18436420498</ele>
        <time>2018-07-09T09:06:34Z</time>
      </trkpt>
      <trkpt lat="45.76353" lon="2.97694">
        <ele>936.19659267745</ele>
        <time>2018-07-09T09:06:43Z</time>
      </trkpt>
      <trkpt lat="45.76345" lon="2.97682">
        <ele>936.19753509496</ele>
        <time>2018-07-09T09:06:52Z</time>
      </trkpt>
      <trkpt lat="45.76333" lon="2.97668">
        <ele>936.21920384945</ele>
        <time>2018-07-09T09:07:02Z</time>
      </trkpt>
      <trkpt lat="45.76313" lon="2.9765">
        <ele>936.26612143022</ele>
        <time>2018-07-09T09:07:12Z</time>
      </trkpt>
      <trkpt lat="45.76302" lon="2.9764">
        <ele>936.33094285253</ele>
        <time>2018-07-09T09:07:22Z</time>
      </trkpt>
      <trkpt lat="45.76289" lon="2.97633">
        <ele>936.36605010956</ele>
        <time>2018-07-09T09:07:31Z</time>
      </trkpt>
      <trkpt lat="45.76269" lon="2.97623">
        <ele>936.3941150715</ele>
        <time>2018-07-09T09:07:41Z</time>
      </trkpt>
      <trkpt lat="45.76254" lon="2.9761">
        <ele>936.3941832942</ele>
        <time>2018-07-09T09:07:50Z</time>
      </trkpt>
      <trkpt lat="45.76233" lon="2.97603">
        <ele>936.38642950451</ele>
        <time>2018-07-09T09:07:59Z</time>
      </trkpt>
      <trkpt lat="45.76218" lon="2.97595">
        <ele>936.4016752886</ele>
        <time>2018-07-09T09:08:09Z</time>
      </trkpt>
      <trkpt lat="45.76207" lon="2.97588">
        <ele>936.37742207534</ele>
        <time>2018-07-09T09:08:18Z</time>
      </trkpt>
      <trkpt lat="45.76196" lon="2.97576">
        <ele>936.35045163026</ele>
        <time>2018-07-09T09:08:28Z</time>
      </trkpt>
      <trkpt lat="45.76184" lon="2.97561">
        <ele>936.34763230819</ele>
        <time>2018-07-09T09:08:37Z</time>
      </trkpt>
      <trkpt lat="45.76172" lon="2.97547">
        <ele>936.18534436736</ele>
        <time>2018-07-09T09:08:47Z</time>
      </trkpt>
      <trkpt lat="45.76159" lon="2.97536">
        <ele>936.0455095443</ele>
        <time>2018-07-09T09:08:56Z</time>
      </trkpt>
      <trkpt lat="45.76136" lon="2.97539">
        <ele>936.14855224863</ele>
        <time>2018-07-09T09:09:06Z</time>
      </trkpt>
      <trkpt lat="45.76118" lon="2.97532">
        <ele>936.47661105528</ele>
        <time>2018-07-09T09:09:15Z</time>
      </trkpt>
      <trkpt lat="45.76106" lon="2.97519">
        <ele>936.86325745458</ele>
        <time>2018-07-09T09:09:24Z</time>
      </trkpt>
      <trkpt lat="45.76091" lon="2.97509">
        <ele>937.3341187414</ele>
        <time>2018-07-09T09:09:33Z</time>
      </trkpt>
      <trkpt lat="45.76074" lon="2.97493">
        <ele>937.95282272227</ele>
        <time>2018-07-09T09:09:43Z</time>
      </trkpt>
      <trkpt lat="45.76064" lon="2.97482">
        <ele>938.50097137242</ele>
        <time>2018-07-09T09:09:53Z</time>
      </trkpt>
      <trkpt lat="45.76055" lon="2.97475">
        <ele>939.00005870949</ele>
        <time>2018-07-09T09:10:02Z</time>
      </trkpt>
      <trkpt lat="45.7604" lon="2.97463">
        <ele>939.49597221903</ele>
        <time>2018-07-09T09:10:12Z</time>
      </trkpt>
      <trkpt lat="45.76027" lon="2.9745">
        <ele>939.93377240005</ele>
        <time>2018-07-09T09:10:22Z</time>
      </trkpt>
      <trkpt lat="45.7602" lon="2.97438">
        <ele>940.29728904761</ele>
        <time>2018-07-09T09:10:31Z</time>
      </trkpt>
      <trkpt lat="45.76012" lon="2.97426">
        <ele>940.36417127647</ele>
        <time>2018-07-09T09:10:41Z</time>
      </trkpt>
      <trkpt lat="45.76003" lon="2.97417">
        <ele>940.27652685914</ele>
        <time>2018-07-09T09:10:50Z</time>
      </trkpt>
      <trkpt lat="45.7598" lon="2.97399">
        <ele>940.14595857791</ele>
        <time>2018-07-09T09:11:00Z</time>
      </trkpt>
      <trkpt lat="45.75965" lon="2.97403">
        <ele>939.95413697352</ele>
        <time>2018-07-09T09:11:10Z</time>
      </trkpt>
      <trkpt lat="45.75958" lon="2.97396">
        <ele>939.88306229688</ele>
        <time>2018-07-09T09:11:20Z</time>
      </trkpt>
      <trkpt lat="45.75951" lon="2.97394">
        <ele>939.82612769433</ele>
        <time>2018-07-09T09:11:29Z</time>
      </trkpt>
      <trkpt lat="45.75936" lon="2.97386">
        <ele>939.72214909671</ele>
        <time>2018-07-09T09:11:39Z</time>
      </trkpt>
      <trkpt lat="45.7592" lon="2.97379">
        <ele>939.66925049504</ele>
        <time>2018-07-09T09:11:48Z</time>
      </trkpt>
      <trkpt lat="45.75913" lon="2.97382">
        <ele>939.72194707227</ele>
        <time>2018-07-09T09:11:57Z</time>
      </trkpt>
      <trkpt lat="45.75911" lon="2.97383">
        <ele>939.78891272474</ele>
        <time>2018-07-09T09:12:07Z</time>
      </trkpt>
      <trkpt lat="45.7591" lon="2.97383">
        <ele>939.82401979185</ele>
        <time>2018-07-09T09:12:18Z</time>
      </trkpt>
      <trkpt lat="45.75908" lon="2.97382">
        <ele>939.91714693142</ele>
        <time>2018-07-09T09:12:28Z</time>
      </trkpt>
      <trkpt lat="45.75904" lon="2.9738">
        <ele>940.01828974709</ele>
        <time>2018-07-09T09:12:37Z</time>
      </trkpt>
      <trkpt lat="45.75902" lon="2.9738">
        <ele>940.20189154906</ele>
        <time>2018-07-09T09:12:47Z</time>
      </trkpt>
      <trkpt lat="45.75903" lon="2.97382">
        <ele>940.44840835541</ele>
        <time>2018-07-09T09:12:57Z</time>
      </trkpt>
      <trkpt lat="45.75902" lon="2.97383">
        <ele>940.69119737863</ele>
        <time>2018-07-09T09:13:08Z</time>
      </trkpt>
      <trkpt lat="45.75901" lon="2.97382">
        <ele>941.0539358152</ele>
        <time>2018-07-09T09:13:17Z</time>
      </trkpt>
      <trkpt lat="45.75906" lon="2.97362">
        <ele>941.4910861396</ele>
        <time>2018-07-09T09:13:27Z</time>
      </trkpt>
      <trkpt lat="45.75913" lon="2.97344">
        <ele>941.78001092742</ele>
        <time>2018-07-09T09:13:36Z</time>
      </trkpt>
      <trkpt lat="45.75916" lon="2.97317">
        <ele>942.07828374717</ele>
        <time>2018-07-09T09:13:46Z</time>
      </trkpt>
      <trkpt lat="45.75921" lon="2.973">
        <ele>942.31548595142</ele>
        <time>2018-07-09T09:13:55Z</time>
      </trkpt>
      <trkpt lat="45.75926" lon="2.97279">
        <ele>942.40840266969</ele>
        <time>2018-07-09T09:14:04Z</time>
      </trkpt>
      <trkpt lat="45.7593" lon="2.97264">
        <ele>942.40769984864</ele>
        <time>2018-07-09T09:14:13Z</time>
      </trkpt>
      <trkpt lat="45.75933" lon="2.97234">
        <ele>942.36108763524</ele>
        <time>2018-07-09T09:14:23Z</time>
      </trkpt>
      <trkpt lat="45.75936" lon="2.97211">
        <ele>942.41367338057</ele>
        <time>2018-07-09T09:14:32Z</time>
      </trkpt>
      <trkpt lat="45.75939" lon="2.97193">
        <ele>942.41311329665</ele>
        <time>2018-07-09T09:14:41Z</time>
      </trkpt>
      <trkpt lat="45.75943" lon="2.97166">
        <ele>942.36184994284</ele>
        <time>2018-07-09T09:14:51Z</time>
      </trkpt>
      <trkpt lat="45.75943" lon="2.97144">
        <ele>942.29089915555</ele>
        <time>2018-07-09T09:15:00Z</time>
      </trkpt>
      <trkpt lat="45.75949" lon="2.97122">
        <ele>941.89577247816</ele>
        <time>2018-07-09T09:15:09Z</time>
      </trkpt>
      <trkpt lat="45.75953" lon="2.97107">
        <ele>941.24855351448</ele>
        <time>2018-07-09T09:15:18Z</time>
      </trkpt>
      <trkpt lat="45.75956" lon="2.97082">
        <ele>940.30844861223</ele>
        <time>2018-07-09T09:15:27Z</time>
      </trkpt>
      <trkpt lat="45.75963" lon="2.97061">
        <ele>939.42276782824</ele>
        <time>2018-07-09T09:15:37Z</time>
      </trkpt>
      <trkpt lat="45.75975" lon="2.9705">
        <ele>938.68559494855</ele>
        <time>2018-07-09T09:15:46Z</time>
      </trkpt>
      <trkpt lat="45.75982" lon="2.97037">
        <ele>937.65989018386</ele>
        <time>2018-07-09T09:15:55Z</time>
      </trkpt>
      <trkpt lat="45.75987" lon="2.97009">
        <ele>936.18658462303</ele>
        <time>2018-07-09T09:16:05Z</time>
      </trkpt>
      <trkpt lat="45.75989" lon="2.96979">
        <ele>933.73008477383</ele>
        <time>2018-07-09T09:16:14Z</time>
      </trkpt>
      <trkpt lat="45.75992" lon="2.9695">
        <ele>931.27620126359</ele>
        <time>2018-07-09T09:16:23Z</time>
      </trkpt>
      <trkpt lat="45.76002" lon="2.96929">
        <ele>929.44471424256</ele>
        <time>2018-07-09T09:16:32Z</time>
      </trkpt>
      <trkpt lat="45.76012" lon="2.96902">
        <ele>927.45584745754</ele>
        <time>2018-07-09T09:16:42Z</time>
      </trkpt>
      <trkpt lat="45.76018" lon="2.96878">
        <ele>926.64156282619</ele>
        <time>2018-07-09T09:16:51Z</time>
      </trkpt>
      <trkpt lat="45.76023" lon="2.9686">
        <ele>926.67769412972</ele>
        <time>2018-07-09T09:17:00Z</time>
      </trkpt>
      <trkpt lat="45.76029" lon="2.96842">
        <ele>927.12409076714</ele>
        <time>2018-07-09T09:17:10Z</time>
      </trkpt>
      <trkpt lat="45.76038" lon="2.96823">
        <ele>927.07697460873</ele>
        <time>2018-07-09T09:17:19Z</time>
      </trkpt>
      <trkpt lat="45.76052" lon="2.96796">
        <ele>926.53337338746</ele>
        <time>2018-07-09T09:17:29Z</time>
      </trkpt>
      <trkpt lat="45.76063" lon="2.96778">
        <ele>926.37114498075</ele>
        <time>2018-07-09T09:17:38Z</time>
      </trkpt>
      <trkpt lat="45.76072" lon="2.96761">
        <ele>927.16044973217</ele>
        <time>2018-07-09T09:17:48Z</time>
      </trkpt>
      <trkpt lat="45.76088" lon="2.96734">
        <ele>927.38494205783</ele>
        <time>2018-07-09T09:17:58Z</time>
      </trkpt>
      <trkpt lat="45.76098" lon="2.9671">
        <ele>927.86426254329</ele>
        <time>2018-07-09T09:18:07Z</time>
      </trkpt>
      <trkpt lat="45.76109" lon="2.96696">
        <ele>928.97795698078</ele>
        <time>2018-07-09T09:18:17Z</time>
      </trkpt>
      <trkpt lat="45.76123" lon="2.96683">
        <ele>930.26693585552</ele>
        <time>2018-07-09T09:18:27Z</time>
      </trkpt>
      <trkpt lat="45.76137" lon="2.9667">
        <ele>930.94051948572</ele>
        <time>2018-07-09T09:18:36Z</time>
      </trkpt>
      <trkpt lat="45.76147" lon="2.96652">
        <ele>931.68205832096</ele>
        <time>2018-07-09T09:18:45Z</time>
      </trkpt>
      <trkpt lat="45.76158" lon="2.96634">
        <ele>933.69261172106</ele>
        <time>2018-07-09T09:18:55Z</time>
      </trkpt>
      <trkpt lat="45.76171" lon="2.96621">
        <ele>936.30744766751</ele>
        <time>2018-07-09T09:19:04Z</time>
      </trkpt>
      <trkpt lat="45.76182" lon="2.96608">
        <ele>939.58904797592</ele>
        <time>2018-07-09T09:19:13Z</time>
      </trkpt>
      <trkpt lat="45.76192" lon="2.96595">
        <ele>943.02397239409</ele>
        <time>2018-07-09T09:19:22Z</time>
      </trkpt>
      <trkpt lat="45.762" lon="2.96582">
        <ele>946.00865465135</ele>
        <time>2018-07-09T09:19:31Z</time>
      </trkpt>
      <trkpt lat="45.76205" lon="2.9657">
        <ele>948.72505936688</ele>
        <time>2018-07-09T09:19:40Z</time>
      </trkpt>
      <trkpt lat="45.76216" lon="2.96556">
        <ele>951.30371068227</ele>
        <time>2018-07-09T09:19:50Z</time>
      </trkpt>
      <trkpt lat="45.76227" lon="2.9654">
        <ele>953.11361019628</ele>
        <time>2018-07-09T09:19:59Z</time>
      </trkpt>
      <trkpt lat="45.76239" lon="2.96518">
        <ele>954.8836114158</ele>
        <time>2018-07-09T09:20:09Z</time>
      </trkpt>
      <trkpt lat="45.76247" lon="2.96507">
        <ele>956.21443551984</ele>
        <time>2018-07-09T09:20:18Z</time>
      </trkpt>
      <trkpt lat="45.76258" lon="2.96498">
        <ele>957.42526140628</ele>
        <time>2018-07-09T09:20:28Z</time>
      </trkpt>
      <trkpt lat="45.76271" lon="2.96487">
        <ele>958.67918892931</ele>
        <time>2018-07-09T09:20:37Z</time>
      </trkpt>
      <trkpt lat="45.76276" lon="2.96481">
        <ele>959.78002461891</ele>
        <time>2018-07-09T09:20:47Z</time>
      </trkpt>
      <trkpt lat="45.76281" lon="2.96471">
        <ele>960.85957793268</ele>
        <time>2018-07-09T09:20:56Z</time>
      </trkpt>
      <trkpt lat="45.76287" lon="2.96461">
        <ele>961.56386193515</ele>
        <time>2018-07-09T09:21:06Z</time>
      </trkpt>
      <trkpt lat="45.76286" lon="2.96443">
        <ele>962.31104827089</ele>
        <time>2018-07-09T09:21:15Z</time>
      </trkpt>
      <trkpt lat="45.76288" lon="2.96423">
        <ele>963.35114145001</ele>
        <time>2018-07-09T09:21:25Z</time>
      </trkpt>
      <trkpt lat="45.76294" lon="2.96405">
        <ele>964.43505864509</ele>
        <time>2018-07-09T09:21:34Z</time>
      </trkpt>
      <trkpt lat="45.76302" lon="2.9638">
        <ele>965.78028178942</ele>
        <time>2018-07-09T09:21:44Z</time>
      </trkpt>
      <trkpt lat="45.76311" lon="2.96359">
        <ele>966.86156901673</ele>
        <time>2018-07-09T09:21:53Z</time>
      </trkpt>
      <trkpt lat="45.76316" lon="2.96342">
        <ele>968.53893529823</ele>
        <time>2018-07-09T09:22:03Z</time>
      </trkpt>
      <trkpt lat="45.76322" lon="2.9632">
        <ele>970.16900153335</ele>
        <time>2018-07-09T09:22:13Z</time>
      </trkpt>
      <trkpt lat="45.76327" lon="2.96301">
        <ele>971.97732267611</ele>
        <time>2018-07-09T09:22:22Z</time>
      </trkpt>
      <trkpt lat="45.76332" lon="2.96278">
        <ele>974.02367063251</ele>
        <time>2018-07-09T09:22:31Z</time>
      </trkpt>
      <trkpt lat="45.76337" lon="2.96258">
        <ele>975.63850570041</ele>
        <time>2018-07-09T09:22:40Z</time>
      </trkpt>
      <trkpt lat="45.76341" lon="2.96241">
        <ele>977.42666535236</ele>
        <time>2018-07-09T09:22:50Z</time>
      </trkpt>
      <trkpt lat="45.76343" lon="2.96227">
        <ele>978.93250402585</ele>
        <time>2018-07-09T09:23:00Z</time>
      </trkpt>
      <trkpt lat="45.76342" lon="2.96197">
        <ele>979.83887552492</ele>
        <time>2018-07-09T09:23:09Z</time>
      </trkpt>
      <trkpt lat="45.76348" lon="2.96172">
        <ele>981.27156859463</ele>
        <time>2018-07-09T09:23:19Z</time>
      </trkpt>
      <trkpt lat="45.76353" lon="2.96159">
        <ele>982.83806193339</ele>
        <time>2018-07-09T09:23:28Z</time>
      </trkpt>
      <trkpt lat="45.76353" lon="2.96147">
        <ele>984.4175524076</ele>
        <time>2018-07-09T09:23:37Z</time>
      </trkpt>
      <trkpt lat="45.76355" lon="2.96124">
        <ele>986.15426400059</ele>
        <time>2018-07-09T09:23:46Z</time>
      </trkpt>
      <trkpt lat="45.76357" lon="2.96106">
        <ele>988.33454529022</ele>
        <time>2018-07-09T09:23:56Z</time>
      </trkpt>
      <trkpt lat="45.76357" lon="2.96098">
        <ele>990.31103494294</ele>
        <time>2018-07-09T09:24:06Z</time>
      </trkpt>
      <trkpt lat="45.76356" lon="2.96096">
        <ele>991.1947687523</ele>
        <time>2018-07-09T09:24:15Z</time>
      </trkpt>
      <trkpt lat="45.76356" lon="2.96095">
        <ele>992.00443203892</ele>
        <time>2018-07-09T09:24:32Z</time>
      </trkpt>
      <trkpt lat="45.76355" lon="2.96092">
        <ele>993.17010817595</ele>
        <time>2018-07-09T09:24:41Z</time>
      </trkpt>
      <trkpt lat="45.76354" lon="2.96093">
        <ele>994.13541613818</ele>
        <time>2018-07-09T09:24:51Z</time>
      </trkpt>
      <trkpt lat="45.76353" lon="2.96083">
        <ele>995.67842621959</ele>
        <time>2018-07-09T09:25:00Z</time>
      </trkpt>
      <trkpt lat="45.76355" lon="2.96067">
        <ele>998.03411374885</ele>
        <time>2018-07-09T09:25:09Z</time>
      </trkpt>
      <trkpt lat="45.76358" lon="2.96041">
        <ele>1000.3224647449</ele>
        <time>2018-07-09T09:25:18Z</time>
      </trkpt>
      <trkpt lat="45.76357" lon="2.96032">
        <ele>1002.3557571269</ele>
        <time>2018-07-09T09:25:27Z</time>
      </trkpt>
      <trkpt lat="45.76358" lon="2.96022">
        <ele>1004.3191265261</ele>
        <time>2018-07-09T09:25:36Z</time>
      </trkpt>
      <trkpt lat="45.7636" lon="2.95999">
        <ele>1006.2045414851</ele>
        <time>2018-07-09T09:25:46Z</time>
      </trkpt>
      <trkpt lat="45.76361" lon="2.95981">
        <ele>1007.7065223043</ele>
        <time>2018-07-09T09:25:55Z</time>
      </trkpt>
      <trkpt lat="45.76362" lon="2.95965">
        <ele>1009.0831500565</ele>
        <time>2018-07-09T09:26:04Z</time>
      </trkpt>
      <trkpt lat="45.76362" lon="2.95951">
        <ele>1010.5660361794</ele>
        <time>2018-07-09T09:26:14Z</time>
      </trkpt>
      <trkpt lat="45.76362" lon="2.95943">
        <ele>1011.6670711321</ele>
        <time>2018-07-09T09:26:23Z</time>
      </trkpt>
      <trkpt lat="45.76364" lon="2.95933">
        <ele>1012.4839059397</ele>
        <time>2018-07-09T09:26:32Z</time>
      </trkpt>
      <trkpt lat="45.76364" lon="2.95927">
        <ele>1013.640274798</ele>
        <time>2018-07-09T09:26:41Z</time>
      </trkpt>
      <trkpt lat="45.76365" lon="2.95916">
        <ele>1014.6531524973</ele>
        <time>2018-07-09T09:26:51Z</time>
      </trkpt>
      <trkpt lat="45.76364" lon="2.95913">
        <ele>1015.9273430483</ele>
        <time>2018-07-09T09:27:00Z</time>
      </trkpt>
      <trkpt lat="45.76363" lon="2.95916">
        <ele>1016.1009029625</ele>
        <time>2018-07-09T09:27:10Z</time>
      </trkpt>
      <trkpt lat="45.76362" lon="2.95916">
        <ele>1016.571868533</ele>
        <time>2018-07-09T09:27:20Z</time>
      </trkpt>
      <trkpt lat="45.7636" lon="2.95911">
        <ele>1018.7988693355</ele>
        <time>2018-07-09T09:27:29Z</time>
      </trkpt>
      <trkpt lat="45.76357" lon="2.95887">
        <ele>1021.0109418311</ele>
        <time>2018-07-09T09:27:39Z</time>
      </trkpt>
      <trkpt lat="45.76358" lon="2.95861">
        <ele>1023.2062495607</ele>
        <time>2018-07-09T09:27:48Z</time>
      </trkpt>
      <trkpt lat="45.76361" lon="2.95845">
        <ele>1025.5590707078</ele>
        <time>2018-07-09T09:27:58Z</time>
      </trkpt>
      <trkpt lat="45.76361" lon="2.95835">
        <ele>1027.5207549565</ele>
        <time>2018-07-09T09:28:08Z</time>
      </trkpt>
      <trkpt lat="45.76363" lon="2.95816">
        <ele>1029.3972139729</ele>
        <time>2018-07-09T09:28:17Z</time>
      </trkpt>
      <trkpt lat="45.76364" lon="2.95801">
        <ele>1031.2520809195</ele>
        <time>2018-07-09T09:28:26Z</time>
      </trkpt>
      <trkpt lat="45.76362" lon="2.95788">
        <ele>1033.2044013966</ele>
        <time>2018-07-09T09:28:36Z</time>
      </trkpt>
      <trkpt lat="45.76361" lon="2.95775">
        <ele>1034.8745530507</ele>
        <time>2018-07-09T09:28:45Z</time>
      </trkpt>
      <trkpt lat="45.76363" lon="2.95763">
        <ele>1036.6517858918</ele>
        <time>2018-07-09T09:28:55Z</time>
      </trkpt>
      <trkpt lat="45.76363" lon="2.9576">
        <ele>1037.8620181748</ele>
        <time>2018-07-09T09:29:04Z</time>
      </trkpt>
      <trkpt lat="45.76366" lon="2.95758">
        <ele>1038.6837030483</ele>
        <time>2018-07-09T09:29:13Z</time>
      </trkpt>
      <trkpt lat="45.76367" lon="2.95759">
        <ele>1039.2451822565</ele>
        <time>2018-07-09T09:29:22Z</time>
      </trkpt>
      <trkpt lat="45.76368" lon="2.95758">
        <ele>1039.4555386441</ele>
        <time>2018-07-09T09:29:31Z</time>
      </trkpt>
      <trkpt lat="45.76374" lon="2.95749">
        <ele>1040.1817946842</ele>
        <time>2018-07-09T09:29:40Z</time>
      </trkpt>
      <trkpt lat="45.76381" lon="2.9574">
        <ele>1041.3055524986</ele>
        <time>2018-07-09T09:29:49Z</time>
      </trkpt>
      <trkpt lat="45.76385" lon="2.95738">
        <ele>1042.2656909987</ele>
        <time>2018-07-09T09:29:58Z</time>
      </trkpt>
      <trkpt lat="45.76391" lon="2.9574">
        <ele>1043.4954820559</ele>
        <time>2018-07-09T09:30:07Z</time>
      </trkpt>
      <trkpt lat="45.76398" lon="2.95736">
        <ele>1044.7185385498</ele>
        <time>2018-07-09T09:30:16Z</time>
      </trkpt>
      <trkpt lat="45.76405" lon="2.95724">
        <ele>1046.1038534931</ele>
        <time>2018-07-09T09:30:26Z</time>
      </trkpt>
      <trkpt lat="45.76408" lon="2.9571">
        <ele>1047.0160034255</ele>
        <time>2018-07-09T09:30:35Z</time>
      </trkpt>
      <trkpt lat="45.76411" lon="2.957">
        <ele>1047.6873293719</ele>
        <time>2018-07-09T09:30:45Z</time>
      </trkpt>
      <trkpt lat="45.7641" lon="2.95692">
        <ele>1047.8894247024</ele>
        <time>2018-07-09T09:30:55Z</time>
      </trkpt>
      <trkpt lat="45.76409" lon="2.95691">
        <ele>1048.3534346619</ele>
        <time>2018-07-09T09:31:01Z</time>
      </trkpt>
      <trkpt lat="45.76409" lon="2.95691">
        <ele>1048.3534346619</ele>
        <time>2018-07-09T09:31:01Z</time>
      </trkpt>
    </trkseg>
  </trk>
</gpx>